<?xml version="1.0" encoding="UTF-8" standalone="no" ?>
<gpx xmlns="http://www.topografix.com/GPX/1/1" xmlns:xsi="http://www.w3.org/2001/XMLSchema-instance" xsi:schemaLocation="http://www.topografix.com/GPX/1/1 http://www.topografix.com/GPX/1/1/gpx.xsd" version="1.1" creator="VisuGPX - https://www.visugpx.com">
  <metadata>
    <name>Sortie VTT dans la Valmasque</name>
    <desc><![CDATA[Sortie VTT dans la Valmasque]]></desc>
  </metadata>
  <trk>
    <name><![CDATA[Valmasque - RaT]]></name>
    <desc><![CDATA[Balade avec Agniescka]]></desc>
    <trkseg>
      <trkpt lat="43.62441" lon="7.05839">
        <ele>145.19999694824</ele>
        <time>2011-01-14T11:13:39.000Z</time>
      </trkpt>
      <trkpt lat="43.62471" lon="7.05805">
        <ele>144.39999389648</ele>
        <time>2011-01-14T11:13:44.000Z</time>
      </trkpt>
      <trkpt lat="43.62483" lon="7.05764">
        <ele>141.60000610352</ele>
        <time>2011-01-14T11:13:48.000Z</time>
      </trkpt>
      <trkpt lat="43.62483" lon="7.05753">
        <ele>140.80000305176</ele>
        <time>2011-01-14T11:13:49.000Z</time>
      </trkpt>
      <trkpt lat="43.62481" lon="7.05736">
        <ele>139.19999694824</ele>
        <time>2011-01-14T11:13:51.000Z</time>
      </trkpt>
      <trkpt lat="43.62481" lon="7.05727">
        <ele>138.39999389648</ele>
        <time>2011-01-14T11:13:53.000Z</time>
      </trkpt>
      <trkpt lat="43.62483" lon="7.05719">
        <ele>137.60000610352</ele>
        <time>2011-01-14T11:13:57.000Z</time>
      </trkpt>
      <trkpt lat="43.62487" lon="7.05697">
        <ele>135.80000305176</ele>
        <time>2011-01-14T11:14:01.000Z</time>
      </trkpt>
      <trkpt lat="43.6248" lon="7.05679">
        <ele>133.80000305176</ele>
        <time>2011-01-14T11:14:04.000Z</time>
      </trkpt>
      <trkpt lat="43.62471" lon="7.05672">
        <ele>132.60000610352</ele>
        <time>2011-01-14T11:14:06.000Z</time>
      </trkpt>
      <trkpt lat="43.62451" lon="7.05666">
        <ele>131</ele>
        <time>2011-01-14T11:14:10.000Z</time>
      </trkpt>
      <trkpt lat="43.62434" lon="7.05651">
        <ele>129</ele>
        <time>2011-01-14T11:14:15.000Z</time>
      </trkpt>
      <trkpt lat="43.62431" lon="7.05629">
        <ele>127.40000152588</ele>
        <time>2011-01-14T11:14:18.000Z</time>
      </trkpt>
      <trkpt lat="43.62432" lon="7.05602">
        <ele>125.80000305176</ele>
        <time>2011-01-14T11:14:22.000Z</time>
      </trkpt>
      <trkpt lat="43.62443" lon="7.0559">
        <ele>125.59999847412</ele>
        <time>2011-01-14T11:14:25.000Z</time>
      </trkpt>
      <trkpt lat="43.62449" lon="7.05579">
        <ele>125.40000152588</ele>
        <time>2011-01-14T11:14:28.000Z</time>
      </trkpt>
      <trkpt lat="43.62441" lon="7.05572">
        <ele>124.59999847412</ele>
        <time>2011-01-14T11:14:30.000Z</time>
      </trkpt>
      <trkpt lat="43.62429" lon="7.05562">
        <ele>123.80000305176</ele>
        <time>2011-01-14T11:14:33.000Z</time>
      </trkpt>
      <trkpt lat="43.62401" lon="7.05533">
        <ele>122</ele>
        <time>2011-01-14T11:14:41.000Z</time>
      </trkpt>
      <trkpt lat="43.62398" lon="7.0553">
        <ele>121.80000305176</ele>
        <time>2011-01-14T11:14:42.000Z</time>
      </trkpt>
      <trkpt lat="43.62383" lon="7.05514">
        <ele>121</ele>
        <time>2011-01-14T11:14:45.000Z</time>
      </trkpt>
      <trkpt lat="43.62363" lon="7.0551">
        <ele>120.59999847412</ele>
        <time>2011-01-14T11:14:49.000Z</time>
      </trkpt>
      <trkpt lat="43.62359" lon="7.05514">
        <ele>120.80000305176</ele>
        <time>2011-01-14T11:14:50.000Z</time>
      </trkpt>
      <trkpt lat="43.62347" lon="7.05524">
        <ele>121</ele>
        <time>2011-01-14T11:14:53.000Z</time>
      </trkpt>
      <trkpt lat="43.62328" lon="7.05532">
        <ele>120.80000305176</ele>
        <time>2011-01-14T11:14:58.000Z</time>
      </trkpt>
      <trkpt lat="43.62298" lon="7.05543">
        <ele>118.80000305176</ele>
        <time>2011-01-14T11:15:04.000Z</time>
      </trkpt>
      <trkpt lat="43.62286" lon="7.05553">
        <ele>117.80000305176</ele>
        <time>2011-01-14T11:15:06.000Z</time>
      </trkpt>
      <trkpt lat="43.62267" lon="7.05578">
        <ele>115.80000305176</ele>
        <time>2011-01-14T11:15:09.000Z</time>
      </trkpt>
      <trkpt lat="43.62241" lon="7.0559">
        <ele>113.80000305176</ele>
        <time>2011-01-14T11:15:13.000Z</time>
      </trkpt>
      <trkpt lat="43.62236" lon="7.05574">
        <ele>113.80000305176</ele>
        <time>2011-01-14T11:15:15.000Z</time>
      </trkpt>
      <trkpt lat="43.62238" lon="7.05559">
        <ele>114.40000152588</ele>
        <time>2011-01-14T11:15:17.000Z</time>
      </trkpt>
      <trkpt lat="43.62234" lon="7.05547">
        <ele>114.80000305176</ele>
        <time>2011-01-14T11:15:20.000Z</time>
      </trkpt>
      <trkpt lat="43.6223" lon="7.05539">
        <ele>115</ele>
        <time>2011-01-14T11:15:22.000Z</time>
      </trkpt>
      <trkpt lat="43.62219" lon="7.0552">
        <ele>115.59999847412</ele>
        <time>2011-01-14T11:15:29.000Z</time>
      </trkpt>
      <trkpt lat="43.62209" lon="7.05513">
        <ele>115.80000305176</ele>
        <time>2011-01-14T11:15:35.000Z</time>
      </trkpt>
      <trkpt lat="43.62207" lon="7.05512">
        <ele>115.80000305176</ele>
        <time>2011-01-14T11:15:36.000Z</time>
      </trkpt>
      <trkpt lat="43.62198" lon="7.0551">
        <ele>115.80000305176</ele>
        <time>2011-01-14T11:15:41.000Z</time>
      </trkpt>
      <trkpt lat="43.62192" lon="7.05511">
        <ele>115.59999847412</ele>
        <time>2011-01-14T11:15:44.000Z</time>
      </trkpt>
      <trkpt lat="43.62189" lon="7.05512">
        <ele>115.40000152588</ele>
        <time>2011-01-14T11:15:46.000Z</time>
      </trkpt>
      <trkpt lat="43.62179" lon="7.05504">
        <ele>115.80000305176</ele>
        <time>2011-01-14T11:15:52.000Z</time>
      </trkpt>
      <trkpt lat="43.62177" lon="7.05503">
        <ele>115.80000305176</ele>
        <time>2011-01-14T11:15:53.000Z</time>
      </trkpt>
      <trkpt lat="43.6217" lon="7.05496">
        <ele>116.40000152588</ele>
        <time>2011-01-14T11:15:57.000Z</time>
      </trkpt>
      <trkpt lat="43.62163" lon="7.05482">
        <ele>117.19999694824</ele>
        <time>2011-01-14T11:16:02.000Z</time>
      </trkpt>
      <trkpt lat="43.62155" lon="7.05466">
        <ele>118</ele>
        <time>2011-01-14T11:16:08.000Z</time>
      </trkpt>
      <trkpt lat="43.62145" lon="7.05447">
        <ele>118.59999847412</ele>
        <time>2011-01-14T11:16:15.000Z</time>
      </trkpt>
      <trkpt lat="43.62137" lon="7.0543">
        <ele>119</ele>
        <time>2011-01-14T11:16:20.000Z</time>
      </trkpt>
      <trkpt lat="43.62122" lon="7.05415">
        <ele>118.19999694824</ele>
        <time>2011-01-14T11:16:25.000Z</time>
      </trkpt>
      <trkpt lat="43.62105" lon="7.05401">
        <ele>117</ele>
        <time>2011-01-14T11:16:30.000Z</time>
      </trkpt>
      <trkpt lat="43.62099" lon="7.05391">
        <ele>116.80000305176</ele>
        <time>2011-01-14T11:16:34.000Z</time>
      </trkpt>
      <trkpt lat="43.62092" lon="7.05378">
        <ele>116.80000305176</ele>
        <time>2011-01-14T11:16:40.000Z</time>
      </trkpt>
      <trkpt lat="43.62089" lon="7.05364">
        <ele>117</ele>
        <time>2011-01-14T11:16:46.000Z</time>
      </trkpt>
      <trkpt lat="43.62088" lon="7.05349">
        <ele>117.80000305176</ele>
        <time>2011-01-14T11:16:54.000Z</time>
      </trkpt>
      <trkpt lat="43.62084" lon="7.05332">
        <ele>118</ele>
        <time>2011-01-14T11:17:01.000Z</time>
      </trkpt>
      <trkpt lat="43.62082" lon="7.05315">
        <ele>118.59999847412</ele>
        <time>2011-01-14T11:17:07.000Z</time>
      </trkpt>
      <trkpt lat="43.62083" lon="7.05302">
        <ele>118.80000305176</ele>
        <time>2011-01-14T11:17:11.000Z</time>
      </trkpt>
      <trkpt lat="43.62084" lon="7.05285">
        <ele>119.19999694824</ele>
        <time>2011-01-14T11:17:17.000Z</time>
      </trkpt>
      <trkpt lat="43.62088" lon="7.05266">
        <ele>120</ele>
        <time>2011-01-14T11:17:24.000Z</time>
      </trkpt>
      <trkpt lat="43.62092" lon="7.05251">
        <ele>121</ele>
        <time>2011-01-14T11:17:29.000Z</time>
      </trkpt>
      <trkpt lat="43.62096" lon="7.05235">
        <ele>121.80000305176</ele>
        <time>2011-01-14T11:17:36.000Z</time>
      </trkpt>
      <trkpt lat="43.621" lon="7.0522">
        <ele>122.40000152588</ele>
        <time>2011-01-14T11:17:42.000Z</time>
      </trkpt>
      <trkpt lat="43.62102" lon="7.05197">
        <ele>123.19999694824</ele>
        <time>2011-01-14T11:17:51.000Z</time>
      </trkpt>
      <trkpt lat="43.62107" lon="7.05178">
        <ele>124.40000152588</ele>
        <time>2011-01-14T11:17:58.000Z</time>
      </trkpt>
      <trkpt lat="43.62111" lon="7.05166">
        <ele>125.19999694824</ele>
        <time>2011-01-14T11:18:03.000Z</time>
      </trkpt>
      <trkpt lat="43.62112" lon="7.05154">
        <ele>125.40000152588</ele>
        <time>2011-01-14T11:18:08.000Z</time>
      </trkpt>
      <trkpt lat="43.62113" lon="7.05148">
        <ele>125.59999847412</ele>
        <time>2011-01-14T11:18:11.000Z</time>
      </trkpt>
      <trkpt lat="43.62116" lon="7.05141">
        <ele>126.19999694824</ele>
        <time>2011-01-14T11:18:16.000Z</time>
      </trkpt>
      <trkpt lat="43.62116" lon="7.05137">
        <ele>126.19999694824</ele>
        <time>2011-01-14T11:18:21.000Z</time>
      </trkpt>
      <trkpt lat="43.62117" lon="7.05135">
        <ele>126.40000152588</ele>
        <time>2011-01-14T11:18:29.000Z</time>
      </trkpt>
      <trkpt lat="43.62117" lon="7.05135">
        <ele>126.40000152588</ele>
        <time>2011-01-14T11:18:40.000Z</time>
      </trkpt>
      <trkpt lat="43.62117" lon="7.05134">
        <ele>126.40000152588</ele>
        <time>2011-01-14T11:18:47.000Z</time>
      </trkpt>
      <trkpt lat="43.62117" lon="7.05134">
        <ele>126.40000152588</ele>
        <time>2011-01-14T11:19:11.000Z</time>
      </trkpt>
      <trkpt lat="43.62117" lon="7.05135">
        <ele>126.40000152588</ele>
        <time>2011-01-14T11:19:16.000Z</time>
      </trkpt>
      <trkpt lat="43.62117" lon="7.05134">
        <ele>126.40000152588</ele>
        <time>2011-01-14T11:19:30.000Z</time>
      </trkpt>
      <trkpt lat="43.62117" lon="7.05134">
        <ele>126.40000152588</ele>
        <time>2011-01-14T11:19:49.000Z</time>
      </trkpt>
      <trkpt lat="43.62119" lon="7.05123">
        <ele>126.80000305176</ele>
        <time>2011-01-14T11:19:54.000Z</time>
      </trkpt>
      <trkpt lat="43.62124" lon="7.05105">
        <ele>127.59999847412</ele>
        <time>2011-01-14T11:20:00.000Z</time>
      </trkpt>
      <trkpt lat="43.62125" lon="7.05092">
        <ele>128</ele>
        <time>2011-01-14T11:20:05.000Z</time>
      </trkpt>
      <trkpt lat="43.62125" lon="7.05088">
        <ele>128</ele>
        <time>2011-01-14T11:20:07.000Z</time>
      </trkpt>
      <trkpt lat="43.62123" lon="7.05074">
        <ele>127.80000305176</ele>
        <time>2011-01-14T11:20:12.000Z</time>
      </trkpt>
      <trkpt lat="43.62123" lon="7.05072">
        <ele>128</ele>
        <time>2011-01-14T11:20:13.000Z</time>
      </trkpt>
      <trkpt lat="43.62127" lon="7.05063">
        <ele>128.80000305176</ele>
        <time>2011-01-14T11:20:17.000Z</time>
      </trkpt>
      <trkpt lat="43.62127" lon="7.05058">
        <ele>129</ele>
        <time>2011-01-14T11:20:20.000Z</time>
      </trkpt>
      <trkpt lat="43.62123" lon="7.05052">
        <ele>128.60000610352</ele>
        <time>2011-01-14T11:20:24.000Z</time>
      </trkpt>
      <trkpt lat="43.62122" lon="7.05047">
        <ele>128.39999389648</ele>
        <time>2011-01-14T11:20:26.000Z</time>
      </trkpt>
      <trkpt lat="43.62114" lon="7.05041">
        <ele>127.59999847412</ele>
        <time>2011-01-14T11:20:30.000Z</time>
      </trkpt>
      <trkpt lat="43.62112" lon="7.0504">
        <ele>127.19999694824</ele>
        <time>2011-01-14T11:20:33.000Z</time>
      </trkpt>
      <trkpt lat="43.62109" lon="7.05035">
        <ele>127</ele>
        <time>2011-01-14T11:20:42.000Z</time>
      </trkpt>
      <trkpt lat="43.62111" lon="7.0503">
        <ele>127.40000152588</ele>
        <time>2011-01-14T11:20:48.000Z</time>
      </trkpt>
      <trkpt lat="43.62111" lon="7.05028">
        <ele>127.59999847412</ele>
        <time>2011-01-14T11:20:55.000Z</time>
      </trkpt>
      <trkpt lat="43.62111" lon="7.05027">
        <ele>127.40000152588</ele>
        <time>2011-01-14T11:20:56.000Z</time>
      </trkpt>
      <trkpt lat="43.62104" lon="7.05011">
        <ele>126.80000305176</ele>
        <time>2011-01-14T11:21:02.000Z</time>
      </trkpt>
      <trkpt lat="43.62102" lon="7.05007">
        <ele>126.59999847412</ele>
        <time>2011-01-14T11:21:03.000Z</time>
      </trkpt>
      <trkpt lat="43.62094" lon="7.04986">
        <ele>126.40000152588</ele>
        <time>2011-01-14T11:21:09.000Z</time>
      </trkpt>
      <trkpt lat="43.62087" lon="7.04967">
        <ele>126.40000152588</ele>
        <time>2011-01-14T11:21:15.000Z</time>
      </trkpt>
      <trkpt lat="43.62078" lon="7.04947">
        <ele>126.80000305176</ele>
        <time>2011-01-14T11:21:20.000Z</time>
      </trkpt>
      <trkpt lat="43.62056" lon="7.04913">
        <ele>127</ele>
        <time>2011-01-14T11:21:28.000Z</time>
      </trkpt>
      <trkpt lat="43.62036" lon="7.04898">
        <ele>126.59999847412</ele>
        <time>2011-01-14T11:21:34.000Z</time>
      </trkpt>
      <trkpt lat="43.62013" lon="7.04888">
        <ele>125.40000152588</ele>
        <time>2011-01-14T11:21:41.000Z</time>
      </trkpt>
      <trkpt lat="43.62009" lon="7.04886">
        <ele>125.40000152588</ele>
        <time>2011-01-14T11:21:42.000Z</time>
      </trkpt>
      <trkpt lat="43.6199" lon="7.04887">
        <ele>124.80000305176</ele>
        <time>2011-01-14T11:21:47.000Z</time>
      </trkpt>
      <trkpt lat="43.61961" lon="7.04887">
        <ele>125.80000305176</ele>
        <time>2011-01-14T11:21:55.000Z</time>
      </trkpt>
      <trkpt lat="43.61943" lon="7.04882">
        <ele>126.59999847412</ele>
        <time>2011-01-14T11:22:00.000Z</time>
      </trkpt>
      <trkpt lat="43.61925" lon="7.04861">
        <ele>127.40000152588</ele>
        <time>2011-01-14T11:22:07.000Z</time>
      </trkpt>
      <trkpt lat="43.61902" lon="7.0483">
        <ele>128.39999389648</ele>
        <time>2011-01-14T11:22:16.000Z</time>
      </trkpt>
      <trkpt lat="43.61892" lon="7.0481">
        <ele>128.80000305176</ele>
        <time>2011-01-14T11:22:21.000Z</time>
      </trkpt>
      <trkpt lat="43.61884" lon="7.04789">
        <ele>129.19999694824</ele>
        <time>2011-01-14T11:22:26.000Z</time>
      </trkpt>
      <trkpt lat="43.6187" lon="7.04775">
        <ele>129.19999694824</ele>
        <time>2011-01-14T11:22:31.000Z</time>
      </trkpt>
      <trkpt lat="43.6187" lon="7.04761">
        <ele>129.19999694824</ele>
        <time>2011-01-14T11:22:34.000Z</time>
      </trkpt>
      <trkpt lat="43.61868" lon="7.04757">
        <ele>129.19999694824</ele>
        <time>2011-01-14T11:22:35.000Z</time>
      </trkpt>
      <trkpt lat="43.6185" lon="7.04717">
        <ele>129.19999694824</ele>
        <time>2011-01-14T11:22:44.000Z</time>
      </trkpt>
      <trkpt lat="43.61832" lon="7.04679">
        <ele>129</ele>
        <time>2011-01-14T11:22:52.000Z</time>
      </trkpt>
      <trkpt lat="43.61813" lon="7.0464">
        <ele>131</ele>
        <time>2011-01-14T11:23:01.000Z</time>
      </trkpt>
      <trkpt lat="43.61793" lon="7.04601">
        <ele>133</ele>
        <time>2011-01-14T11:23:10.000Z</time>
      </trkpt>
      <trkpt lat="43.61785" lon="7.04582">
        <ele>133.60000610352</ele>
        <time>2011-01-14T11:23:14.000Z</time>
      </trkpt>
      <trkpt lat="43.61775" lon="7.04562">
        <ele>133.80000305176</ele>
        <time>2011-01-14T11:23:19.000Z</time>
      </trkpt>
      <trkpt lat="43.61762" lon="7.04533">
        <ele>134.39999389648</ele>
        <time>2011-01-14T11:23:25.000Z</time>
      </trkpt>
      <trkpt lat="43.61747" lon="7.04504">
        <ele>135.19999694824</ele>
        <time>2011-01-14T11:23:31.000Z</time>
      </trkpt>
      <trkpt lat="43.61744" lon="7.045">
        <ele>135.60000610352</ele>
        <time>2011-01-14T11:23:32.000Z</time>
      </trkpt>
      <trkpt lat="43.61731" lon="7.04487">
        <ele>137</ele>
        <time>2011-01-14T11:23:36.000Z</time>
      </trkpt>
      <trkpt lat="43.61716" lon="7.04465">
        <ele>137.80000305176</ele>
        <time>2011-01-14T11:23:42.000Z</time>
      </trkpt>
      <trkpt lat="43.61711" lon="7.04439">
        <ele>137</ele>
        <time>2011-01-14T11:23:47.000Z</time>
      </trkpt>
      <trkpt lat="43.6171" lon="7.04432">
        <ele>136.60000610352</ele>
        <time>2011-01-14T11:23:48.000Z</time>
      </trkpt>
      <trkpt lat="43.61707" lon="7.04412">
        <ele>135.80000305176</ele>
        <time>2011-01-14T11:23:51.000Z</time>
      </trkpt>
      <trkpt lat="43.61701" lon="7.04389">
        <ele>135.19999694824</ele>
        <time>2011-01-14T11:23:55.000Z</time>
      </trkpt>
      <trkpt lat="43.61683" lon="7.04349">
        <ele>133</ele>
        <time>2011-01-14T11:24:03.000Z</time>
      </trkpt>
      <trkpt lat="43.61661" lon="7.04299">
        <ele>132.19999694824</ele>
        <time>2011-01-14T11:24:11.000Z</time>
      </trkpt>
      <trkpt lat="43.61644" lon="7.04263">
        <ele>133.39999389648</ele>
        <time>2011-01-14T11:24:18.000Z</time>
      </trkpt>
      <trkpt lat="43.61638" lon="7.0424">
        <ele>133.39999389648</ele>
        <time>2011-01-14T11:24:22.000Z</time>
      </trkpt>
      <trkpt lat="43.6163" lon="7.0418">
        <ele>134.19999694824</ele>
        <time>2011-01-14T11:24:33.000Z</time>
      </trkpt>
      <trkpt lat="43.61616" lon="7.04152">
        <ele>134.80000305176</ele>
        <time>2011-01-14T11:24:39.000Z</time>
      </trkpt>
      <trkpt lat="43.61598" lon="7.04142">
        <ele>134.80000305176</ele>
        <time>2011-01-14T11:24:44.000Z</time>
      </trkpt>
      <trkpt lat="43.61581" lon="7.04143">
        <ele>134.80000305176</ele>
        <time>2011-01-14T11:24:49.000Z</time>
      </trkpt>
      <trkpt lat="43.61572" lon="7.04147">
        <ele>134.80000305176</ele>
        <time>2011-01-14T11:24:52.000Z</time>
      </trkpt>
      <trkpt lat="43.61563" lon="7.04168">
        <ele>134.19999694824</ele>
        <time>2011-01-14T11:24:57.000Z</time>
      </trkpt>
      <trkpt lat="43.6155" lon="7.0419">
        <ele>134.60000610352</ele>
        <time>2011-01-14T11:25:03.000Z</time>
      </trkpt>
      <trkpt lat="43.61544" lon="7.04204">
        <ele>134.80000305176</ele>
        <time>2011-01-14T11:25:08.000Z</time>
      </trkpt>
      <trkpt lat="43.61539" lon="7.042">
        <ele>134.80000305176</ele>
        <time>2011-01-14T11:25:14.000Z</time>
      </trkpt>
      <trkpt lat="43.61535" lon="7.04193">
        <ele>134.80000305176</ele>
        <time>2011-01-14T11:25:17.000Z</time>
      </trkpt>
      <trkpt lat="43.61534" lon="7.04188">
        <ele>134.80000305176</ele>
        <time>2011-01-14T11:25:20.000Z</time>
      </trkpt>
      <trkpt lat="43.61532" lon="7.04184">
        <ele>134.80000305176</ele>
        <time>2011-01-14T11:25:26.000Z</time>
      </trkpt>
      <trkpt lat="43.61531" lon="7.04183">
        <ele>134.80000305176</ele>
        <time>2011-01-14T11:25:28.000Z</time>
      </trkpt>
      <trkpt lat="43.61527" lon="7.04182">
        <ele>134.80000305176</ele>
        <time>2011-01-14T11:25:30.000Z</time>
      </trkpt>
      <trkpt lat="43.61525" lon="7.04179">
        <ele>134.80000305176</ele>
        <time>2011-01-14T11:25:35.000Z</time>
      </trkpt>
      <trkpt lat="43.61515" lon="7.04171">
        <ele>134.80000305176</ele>
        <time>2011-01-14T11:25:41.000Z</time>
      </trkpt>
      <trkpt lat="43.61508" lon="7.0418">
        <ele>135</ele>
        <time>2011-01-14T11:25:46.000Z</time>
      </trkpt>
      <trkpt lat="43.61504" lon="7.04186">
        <ele>135.39999389648</ele>
        <time>2011-01-14T11:25:49.000Z</time>
      </trkpt>
      <trkpt lat="43.61492" lon="7.04209">
        <ele>136.60000610352</ele>
        <time>2011-01-14T11:25:58.000Z</time>
      </trkpt>
      <trkpt lat="43.61481" lon="7.04227">
        <ele>138</ele>
        <time>2011-01-14T11:26:04.000Z</time>
      </trkpt>
      <trkpt lat="43.6147" lon="7.04242">
        <ele>139</ele>
        <time>2011-01-14T11:26:10.000Z</time>
      </trkpt>
      <trkpt lat="43.61463" lon="7.0425">
        <ele>139.60000610352</ele>
        <time>2011-01-14T11:26:14.000Z</time>
      </trkpt>
      <trkpt lat="43.61455" lon="7.0426">
        <ele>140.80000305176</ele>
        <time>2011-01-14T11:26:20.000Z</time>
      </trkpt>
      <trkpt lat="43.61448" lon="7.04267">
        <ele>141.60000610352</ele>
        <time>2011-01-14T11:26:25.000Z</time>
      </trkpt>
      <trkpt lat="43.61446" lon="7.0427">
        <ele>141.80000305176</ele>
        <time>2011-01-14T11:26:27.000Z</time>
      </trkpt>
      <trkpt lat="43.6144" lon="7.04275">
        <ele>142.19999694824</ele>
        <time>2011-01-14T11:26:30.000Z</time>
      </trkpt>
      <trkpt lat="43.61431" lon="7.04281">
        <ele>142.80000305176</ele>
        <time>2011-01-14T11:26:36.000Z</time>
      </trkpt>
      <trkpt lat="43.61425" lon="7.04286">
        <ele>143.19999694824</ele>
        <time>2011-01-14T11:26:41.000Z</time>
      </trkpt>
      <trkpt lat="43.61423" lon="7.04285">
        <ele>143.19999694824</ele>
        <time>2011-01-14T11:26:47.000Z</time>
      </trkpt>
      <trkpt lat="43.61422" lon="7.04284">
        <ele>143.19999694824</ele>
        <time>2011-01-14T11:27:05.000Z</time>
      </trkpt>
      <trkpt lat="43.61421" lon="7.04281">
        <ele>143.19999694824</ele>
        <time>2011-01-14T11:27:18.000Z</time>
      </trkpt>
      <trkpt lat="43.6142" lon="7.04272">
        <ele>143</ele>
        <time>2011-01-14T11:27:22.000Z</time>
      </trkpt>
      <trkpt lat="43.61421" lon="7.04258">
        <ele>142.80000305176</ele>
        <time>2011-01-14T11:27:28.000Z</time>
      </trkpt>
      <trkpt lat="43.61419" lon="7.0425">
        <ele>142.80000305176</ele>
        <time>2011-01-14T11:27:33.000Z</time>
      </trkpt>
      <trkpt lat="43.6142" lon="7.0425">
        <ele>142.60000610352</ele>
        <time>2011-01-14T11:27:34.000Z</time>
      </trkpt>
      <trkpt lat="43.61422" lon="7.04237">
        <ele>142.80000305176</ele>
        <time>2011-01-14T11:27:41.000Z</time>
      </trkpt>
      <trkpt lat="43.6142" lon="7.04226">
        <ele>143.19999694824</ele>
        <time>2011-01-14T11:27:46.000Z</time>
      </trkpt>
      <trkpt lat="43.61418" lon="7.04213">
        <ele>143.60000610352</ele>
        <time>2011-01-14T11:27:51.000Z</time>
      </trkpt>
      <trkpt lat="43.61418" lon="7.04209">
        <ele>143.80000305176</ele>
        <time>2011-01-14T11:27:59.000Z</time>
      </trkpt>
      <trkpt lat="43.61419" lon="7.04203">
        <ele>143.80000305176</ele>
        <time>2011-01-14T11:28:04.000Z</time>
      </trkpt>
      <trkpt lat="43.6142" lon="7.04197">
        <ele>143.80000305176</ele>
        <time>2011-01-14T11:28:06.000Z</time>
      </trkpt>
      <trkpt lat="43.61421" lon="7.04186">
        <ele>144</ele>
        <time>2011-01-14T11:28:11.000Z</time>
      </trkpt>
      <trkpt lat="43.61418" lon="7.04169">
        <ele>144.80000305176</ele>
        <time>2011-01-14T11:28:17.000Z</time>
      </trkpt>
      <trkpt lat="43.61414" lon="7.04151">
        <ele>144.39999389648</ele>
        <time>2011-01-14T11:28:23.000Z</time>
      </trkpt>
      <trkpt lat="43.61409" lon="7.04143">
        <ele>144.80000305176</ele>
        <time>2011-01-14T11:28:27.000Z</time>
      </trkpt>
      <trkpt lat="43.61406" lon="7.04136">
        <ele>145.19999694824</ele>
        <time>2011-01-14T11:28:30.000Z</time>
      </trkpt>
      <trkpt lat="43.61405" lon="7.04117">
        <ele>143.80000305176</ele>
        <time>2011-01-14T11:28:35.000Z</time>
      </trkpt>
      <trkpt lat="43.61404" lon="7.04088">
        <ele>141.80000305176</ele>
        <time>2011-01-14T11:28:40.000Z</time>
      </trkpt>
      <trkpt lat="43.614" lon="7.04072">
        <ele>141.60000610352</ele>
        <time>2011-01-14T11:28:44.000Z</time>
      </trkpt>
      <trkpt lat="43.61398" lon="7.04066">
        <ele>141.60000610352</ele>
        <time>2011-01-14T11:28:49.000Z</time>
      </trkpt>
      <trkpt lat="43.61395" lon="7.04067">
        <ele>142.19999694824</ele>
        <time>2011-01-14T11:28:54.000Z</time>
      </trkpt>
      <trkpt lat="43.61394" lon="7.04061">
        <ele>142</ele>
        <time>2011-01-14T11:28:58.000Z</time>
      </trkpt>
      <trkpt lat="43.61394" lon="7.04052">
        <ele>141.19999694824</ele>
        <time>2011-01-14T11:29:01.000Z</time>
      </trkpt>
      <trkpt lat="43.61391" lon="7.04041">
        <ele>141</ele>
        <time>2011-01-14T11:29:06.000Z</time>
      </trkpt>
      <trkpt lat="43.61383" lon="7.04035">
        <ele>141.39999389648</ele>
        <time>2011-01-14T11:29:11.000Z</time>
      </trkpt>
      <trkpt lat="43.61373" lon="7.04024">
        <ele>141.60000610352</ele>
        <time>2011-01-14T11:29:17.000Z</time>
      </trkpt>
      <trkpt lat="43.61363" lon="7.04015">
        <ele>141.60000610352</ele>
        <time>2011-01-14T11:29:22.000Z</time>
      </trkpt>
      <trkpt lat="43.61357" lon="7.04011">
        <ele>141.60000610352</ele>
        <time>2011-01-14T11:29:25.000Z</time>
      </trkpt>
      <trkpt lat="43.6134" lon="7.03993">
        <ele>141.19999694824</ele>
        <time>2011-01-14T11:29:33.000Z</time>
      </trkpt>
      <trkpt lat="43.61328" lon="7.03979">
        <ele>141.80000305176</ele>
        <time>2011-01-14T11:29:39.000Z</time>
      </trkpt>
      <trkpt lat="43.61314" lon="7.0396">
        <ele>142.19999694824</ele>
        <time>2011-01-14T11:29:46.000Z</time>
      </trkpt>
      <trkpt lat="43.61303" lon="7.0394">
        <ele>142.19999694824</ele>
        <time>2011-01-14T11:29:54.000Z</time>
      </trkpt>
      <trkpt lat="43.61292" lon="7.03926">
        <ele>142.19999694824</ele>
        <time>2011-01-14T11:30:01.000Z</time>
      </trkpt>
      <trkpt lat="43.61282" lon="7.03914">
        <ele>142.39999389648</ele>
        <time>2011-01-14T11:30:07.000Z</time>
      </trkpt>
      <trkpt lat="43.61272" lon="7.03901">
        <ele>143.19999694824</ele>
        <time>2011-01-14T11:30:13.000Z</time>
      </trkpt>
      <trkpt lat="43.61267" lon="7.03885">
        <ele>143.80000305176</ele>
        <time>2011-01-14T11:30:20.000Z</time>
      </trkpt>
      <trkpt lat="43.61264" lon="7.03869">
        <ele>144.19999694824</ele>
        <time>2011-01-14T11:30:26.000Z</time>
      </trkpt>
      <trkpt lat="43.61262" lon="7.03853">
        <ele>144.60000610352</ele>
        <time>2011-01-14T11:30:31.000Z</time>
      </trkpt>
      <trkpt lat="43.61257" lon="7.03842">
        <ele>144.80000305176</ele>
        <time>2011-01-14T11:30:36.000Z</time>
      </trkpt>
      <trkpt lat="43.61256" lon="7.03824">
        <ele>145</ele>
        <time>2011-01-14T11:30:42.000Z</time>
      </trkpt>
      <trkpt lat="43.61249" lon="7.038">
        <ele>145</ele>
        <time>2011-01-14T11:30:49.000Z</time>
      </trkpt>
      <trkpt lat="43.61236" lon="7.03787">
        <ele>145</ele>
        <time>2011-01-14T11:30:55.000Z</time>
      </trkpt>
      <trkpt lat="43.61226" lon="7.03783">
        <ele>145</ele>
        <time>2011-01-14T11:30:59.000Z</time>
      </trkpt>
      <trkpt lat="43.61213" lon="7.03788">
        <ele>145.19999694824</ele>
        <time>2011-01-14T11:31:04.000Z</time>
      </trkpt>
      <trkpt lat="43.61206" lon="7.03782">
        <ele>145.19999694824</ele>
        <time>2011-01-14T11:31:08.000Z</time>
      </trkpt>
      <trkpt lat="43.61189" lon="7.03772">
        <ele>145</ele>
        <time>2011-01-14T11:31:13.000Z</time>
      </trkpt>
      <trkpt lat="43.61176" lon="7.03761">
        <ele>144.39999389648</ele>
        <time>2011-01-14T11:31:18.000Z</time>
      </trkpt>
      <trkpt lat="43.61168" lon="7.03754">
        <ele>144</ele>
        <time>2011-01-14T11:31:21.000Z</time>
      </trkpt>
      <trkpt lat="43.61162" lon="7.03737">
        <ele>144.39999389648</ele>
        <time>2011-01-14T11:31:26.000Z</time>
      </trkpt>
      <trkpt lat="43.61156" lon="7.03729">
        <ele>144.80000305176</ele>
        <time>2011-01-14T11:31:29.000Z</time>
      </trkpt>
      <trkpt lat="43.61142" lon="7.03706">
        <ele>146</ele>
        <time>2011-01-14T11:31:36.000Z</time>
      </trkpt>
      <trkpt lat="43.61139" lon="7.03696">
        <ele>146</ele>
        <time>2011-01-14T11:31:38.000Z</time>
      </trkpt>
      <trkpt lat="43.6113" lon="7.03682">
        <ele>146.80000305176</ele>
        <time>2011-01-14T11:31:43.000Z</time>
      </trkpt>
      <trkpt lat="43.61127" lon="7.0368">
        <ele>147</ele>
        <time>2011-01-14T11:31:44.000Z</time>
      </trkpt>
      <trkpt lat="43.61114" lon="7.03669">
        <ele>147.80000305176</ele>
        <time>2011-01-14T11:31:50.000Z</time>
      </trkpt>
      <trkpt lat="43.61102" lon="7.03658">
        <ele>148.19999694824</ele>
        <time>2011-01-14T11:31:55.000Z</time>
      </trkpt>
      <trkpt lat="43.61091" lon="7.03649">
        <ele>148.39999389648</ele>
        <time>2011-01-14T11:31:59.000Z</time>
      </trkpt>
      <trkpt lat="43.61076" lon="7.03638">
        <ele>148.60000610352</ele>
        <time>2011-01-14T11:32:04.000Z</time>
      </trkpt>
      <trkpt lat="43.61073" lon="7.03634">
        <ele>148.39999389648</ele>
        <time>2011-01-14T11:32:07.000Z</time>
      </trkpt>
      <trkpt lat="43.61067" lon="7.03629">
        <ele>148.39999389648</ele>
        <time>2011-01-14T11:32:24.000Z</time>
      </trkpt>
      <trkpt lat="43.61066" lon="7.0363">
        <ele>148.60000610352</ele>
        <time>2011-01-14T11:32:33.000Z</time>
      </trkpt>
      <trkpt lat="43.61063" lon="7.03633">
        <ele>148.80000305176</ele>
        <time>2011-01-14T11:32:39.000Z</time>
      </trkpt>
      <trkpt lat="43.61053" lon="7.03641">
        <ele>149.80000305176</ele>
        <time>2011-01-14T11:32:45.000Z</time>
      </trkpt>
      <trkpt lat="43.61046" lon="7.03648">
        <ele>150.60000610352</ele>
        <time>2011-01-14T11:32:49.000Z</time>
      </trkpt>
      <trkpt lat="43.61041" lon="7.03653">
        <ele>151</ele>
        <time>2011-01-14T11:32:52.000Z</time>
      </trkpt>
      <trkpt lat="43.61032" lon="7.03648">
        <ele>151.19999694824</ele>
        <time>2011-01-14T11:32:56.000Z</time>
      </trkpt>
      <trkpt lat="43.61013" lon="7.0364">
        <ele>151.60000610352</ele>
        <time>2011-01-14T11:33:02.000Z</time>
      </trkpt>
      <trkpt lat="43.60999" lon="7.03625">
        <ele>151.39999389648</ele>
        <time>2011-01-14T11:33:08.000Z</time>
      </trkpt>
      <trkpt lat="43.60988" lon="7.03607">
        <ele>150.60000610352</ele>
        <time>2011-01-14T11:33:14.000Z</time>
      </trkpt>
      <trkpt lat="43.6099" lon="7.03594">
        <ele>149.80000305176</ele>
        <time>2011-01-14T11:33:19.000Z</time>
      </trkpt>
      <trkpt lat="43.60988" lon="7.03582">
        <ele>149.19999694824</ele>
        <time>2011-01-14T11:33:24.000Z</time>
      </trkpt>
      <trkpt lat="43.60986" lon="7.03572">
        <ele>149.19999694824</ele>
        <time>2011-01-14T11:33:28.000Z</time>
      </trkpt>
      <trkpt lat="43.60975" lon="7.03561">
        <ele>149.60000610352</ele>
        <time>2011-01-14T11:33:32.000Z</time>
      </trkpt>
      <trkpt lat="43.60964" lon="7.03562">
        <ele>150.19999694824</ele>
        <time>2011-01-14T11:33:34.000Z</time>
      </trkpt>
      <trkpt lat="43.60947" lon="7.03562">
        <ele>151</ele>
        <time>2011-01-14T11:33:37.000Z</time>
      </trkpt>
      <trkpt lat="43.60932" lon="7.0354">
        <ele>152</ele>
        <time>2011-01-14T11:33:41.000Z</time>
      </trkpt>
      <trkpt lat="43.60926" lon="7.0351">
        <ele>153</ele>
        <time>2011-01-14T11:33:47.000Z</time>
      </trkpt>
      <trkpt lat="43.60921" lon="7.0348">
        <ele>153</ele>
        <time>2011-01-14T11:33:54.000Z</time>
      </trkpt>
      <trkpt lat="43.6092" lon="7.03476">
        <ele>152.80000305176</ele>
        <time>2011-01-14T11:33:55.000Z</time>
      </trkpt>
      <trkpt lat="43.6091" lon="7.03455">
        <ele>152.39999389648</ele>
        <time>2011-01-14T11:34:01.000Z</time>
      </trkpt>
      <trkpt lat="43.60904" lon="7.03447">
        <ele>152.19999694824</ele>
        <time>2011-01-14T11:34:06.000Z</time>
      </trkpt>
      <trkpt lat="43.60902" lon="7.03447">
        <ele>152.39999389648</ele>
        <time>2011-01-14T11:34:15.000Z</time>
      </trkpt>
      <trkpt lat="43.60901" lon="7.03447">
        <ele>152.39999389648</ele>
        <time>2011-01-14T11:34:17.000Z</time>
      </trkpt>
      <trkpt lat="43.60896" lon="7.03457">
        <ele>153</ele>
        <time>2011-01-14T11:34:22.000Z</time>
      </trkpt>
      <trkpt lat="43.6089" lon="7.03473">
        <ele>153.80000305176</ele>
        <time>2011-01-14T11:34:28.000Z</time>
      </trkpt>
      <trkpt lat="43.60879" lon="7.03489">
        <ele>155.19999694824</ele>
        <time>2011-01-14T11:34:35.000Z</time>
      </trkpt>
      <trkpt lat="43.60865" lon="7.03499">
        <ele>156.39999389648</ele>
        <time>2011-01-14T11:34:41.000Z</time>
      </trkpt>
      <trkpt lat="43.60849" lon="7.03505">
        <ele>157.19999694824</ele>
        <time>2011-01-14T11:34:47.000Z</time>
      </trkpt>
      <trkpt lat="43.60832" lon="7.0351">
        <ele>158.19999694824</ele>
        <time>2011-01-14T11:34:54.000Z</time>
      </trkpt>
      <trkpt lat="43.60821" lon="7.03521">
        <ele>159.80000305176</ele>
        <time>2011-01-14T11:35:00.000Z</time>
      </trkpt>
      <trkpt lat="43.60808" lon="7.03535">
        <ele>161.80000305176</ele>
        <time>2011-01-14T11:35:07.000Z</time>
      </trkpt>
      <trkpt lat="43.60797" lon="7.03548">
        <ele>163.39999389648</ele>
        <time>2011-01-14T11:35:13.000Z</time>
      </trkpt>
      <trkpt lat="43.60786" lon="7.03557">
        <ele>165.19999694824</ele>
        <time>2011-01-14T11:35:18.000Z</time>
      </trkpt>
      <trkpt lat="43.60766" lon="7.03565">
        <ele>168</ele>
        <time>2011-01-14T11:35:26.000Z</time>
      </trkpt>
      <trkpt lat="43.60757" lon="7.03566">
        <ele>169.19999694824</ele>
        <time>2011-01-14T11:35:30.000Z</time>
      </trkpt>
      <trkpt lat="43.60749" lon="7.03556">
        <ele>169.60000610352</ele>
        <time>2011-01-14T11:35:35.000Z</time>
      </trkpt>
      <trkpt lat="43.60748" lon="7.03552">
        <ele>169.60000610352</ele>
        <time>2011-01-14T11:35:37.000Z</time>
      </trkpt>
      <trkpt lat="43.60743" lon="7.03543">
        <ele>169.80000305176</ele>
        <time>2011-01-14T11:35:41.000Z</time>
      </trkpt>
      <trkpt lat="43.60726" lon="7.03531">
        <ele>171.19999694824</ele>
        <time>2011-01-14T11:35:46.000Z</time>
      </trkpt>
      <trkpt lat="43.60722" lon="7.03529">
        <ele>171.60000610352</ele>
        <time>2011-01-14T11:35:47.000Z</time>
      </trkpt>
      <trkpt lat="43.60707" lon="7.03519">
        <ele>172.80000305176</ele>
        <time>2011-01-14T11:35:50.000Z</time>
      </trkpt>
      <trkpt lat="43.60689" lon="7.03493">
        <ele>174.60000610352</ele>
        <time>2011-01-14T11:35:53.000Z</time>
      </trkpt>
      <trkpt lat="43.60694" lon="7.03484">
        <ele>174.19999694824</ele>
        <time>2011-01-14T11:35:57.000Z</time>
      </trkpt>
      <trkpt lat="43.607" lon="7.03478">
        <ele>173.60000610352</ele>
        <time>2011-01-14T11:36:00.000Z</time>
      </trkpt>
      <trkpt lat="43.60708" lon="7.03463">
        <ele>173</ele>
        <time>2011-01-14T11:36:07.000Z</time>
      </trkpt>
      <trkpt lat="43.60715" lon="7.0345">
        <ele>172.39999389648</ele>
        <time>2011-01-14T11:36:14.000Z</time>
      </trkpt>
      <trkpt lat="43.60718" lon="7.03444">
        <ele>172</ele>
        <time>2011-01-14T11:36:17.000Z</time>
      </trkpt>
      <trkpt lat="43.60724" lon="7.03437">
        <ele>171.19999694824</ele>
        <time>2011-01-14T11:36:21.000Z</time>
      </trkpt>
      <trkpt lat="43.60735" lon="7.03421">
        <ele>169.60000610352</ele>
        <time>2011-01-14T11:36:28.000Z</time>
      </trkpt>
      <trkpt lat="43.60746" lon="7.03405">
        <ele>167.80000305176</ele>
        <time>2011-01-14T11:36:34.000Z</time>
      </trkpt>
      <trkpt lat="43.60756" lon="7.0339">
        <ele>166.19999694824</ele>
        <time>2011-01-14T11:36:39.000Z</time>
      </trkpt>
      <trkpt lat="43.60762" lon="7.03374">
        <ele>165</ele>
        <time>2011-01-14T11:36:43.000Z</time>
      </trkpt>
      <trkpt lat="43.60763" lon="7.0337">
        <ele>165</ele>
        <time>2011-01-14T11:36:44.000Z</time>
      </trkpt>
      <trkpt lat="43.60756" lon="7.0336">
        <ele>166.39999389648</ele>
        <time>2011-01-14T11:36:49.000Z</time>
      </trkpt>
      <trkpt lat="43.60746" lon="7.03352">
        <ele>168.39999389648</ele>
        <time>2011-01-14T11:36:54.000Z</time>
      </trkpt>
      <trkpt lat="43.60736" lon="7.03344">
        <ele>170.39999389648</ele>
        <time>2011-01-14T11:36:59.000Z</time>
      </trkpt>
      <trkpt lat="43.60725" lon="7.03333">
        <ele>172.80000305176</ele>
        <time>2011-01-14T11:37:04.000Z</time>
      </trkpt>
      <trkpt lat="43.60711" lon="7.03323">
        <ele>174.80000305176</ele>
        <time>2011-01-14T11:37:10.000Z</time>
      </trkpt>
      <trkpt lat="43.60703" lon="7.03319">
        <ele>176.19999694824</ele>
        <time>2011-01-14T11:37:13.000Z</time>
      </trkpt>
      <trkpt lat="43.607" lon="7.03309">
        <ele>176.39999389648</ele>
        <time>2011-01-14T11:37:17.000Z</time>
      </trkpt>
      <trkpt lat="43.60703" lon="7.03305">
        <ele>175.39999389648</ele>
        <time>2011-01-14T11:37:20.000Z</time>
      </trkpt>
      <trkpt lat="43.60711" lon="7.03294">
        <ele>172.80000305176</ele>
        <time>2011-01-14T11:37:26.000Z</time>
      </trkpt>
      <trkpt lat="43.60712" lon="7.03278">
        <ele>171.60000610352</ele>
        <time>2011-01-14T11:37:31.000Z</time>
      </trkpt>
      <trkpt lat="43.60704" lon="7.03264">
        <ele>173</ele>
        <time>2011-01-14T11:37:37.000Z</time>
      </trkpt>
      <trkpt lat="43.6069" lon="7.03251">
        <ele>176.60000610352</ele>
        <time>2011-01-14T11:37:44.000Z</time>
      </trkpt>
      <trkpt lat="43.60681" lon="7.0324">
        <ele>178.39999389648</ele>
        <time>2011-01-14T11:37:50.000Z</time>
      </trkpt>
      <trkpt lat="43.60676" lon="7.03222">
        <ele>178.60000610352</ele>
        <time>2011-01-14T11:37:56.000Z</time>
      </trkpt>
      <trkpt lat="43.60672" lon="7.03204">
        <ele>178.39999389648</ele>
        <time>2011-01-14T11:38:02.000Z</time>
      </trkpt>
      <trkpt lat="43.60667" lon="7.03193">
        <ele>179.19999694824</ele>
        <time>2011-01-14T11:38:07.000Z</time>
      </trkpt>
      <trkpt lat="43.60664" lon="7.03184">
        <ele>179</ele>
        <time>2011-01-14T11:38:12.000Z</time>
      </trkpt>
      <trkpt lat="43.60659" lon="7.03178">
        <ele>180.19999694824</ele>
        <time>2011-01-14T11:38:16.000Z</time>
      </trkpt>
      <trkpt lat="43.60654" lon="7.03172">
        <ele>181.19999694824</ele>
        <time>2011-01-14T11:38:19.000Z</time>
      </trkpt>
      <trkpt lat="43.60642" lon="7.03155">
        <ele>182.39999389648</ele>
        <time>2011-01-14T11:38:26.000Z</time>
      </trkpt>
      <trkpt lat="43.6064" lon="7.03154">
        <ele>183</ele>
        <time>2011-01-14T11:38:28.000Z</time>
      </trkpt>
      <trkpt lat="43.60637" lon="7.03155">
        <ele>184.19999694824</ele>
        <time>2011-01-14T11:38:37.000Z</time>
      </trkpt>
      <trkpt lat="43.60635" lon="7.03152">
        <ele>184.39999389648</ele>
        <time>2011-01-14T11:38:44.000Z</time>
      </trkpt>
      <trkpt lat="43.60631" lon="7.03144">
        <ele>184.19999694824</ele>
        <time>2011-01-14T11:38:50.000Z</time>
      </trkpt>
      <trkpt lat="43.6063" lon="7.03141">
        <ele>184</ele>
        <time>2011-01-14T11:38:52.000Z</time>
      </trkpt>
      <trkpt lat="43.60619" lon="7.03119">
        <ele>184</ele>
        <time>2011-01-14T11:39:00.000Z</time>
      </trkpt>
      <trkpt lat="43.60609" lon="7.03098">
        <ele>183.80000305176</ele>
        <time>2011-01-14T11:39:04.000Z</time>
      </trkpt>
      <trkpt lat="43.60592" lon="7.03071">
        <ele>184.19999694824</ele>
        <time>2011-01-14T11:39:09.000Z</time>
      </trkpt>
      <trkpt lat="43.6057" lon="7.0304">
        <ele>181.39999389648</ele>
        <time>2011-01-14T11:39:14.000Z</time>
      </trkpt>
      <trkpt lat="43.60547" lon="7.02995">
        <ele>175.19999694824</ele>
        <time>2011-01-14T11:39:19.000Z</time>
      </trkpt>
      <trkpt lat="43.60527" lon="7.02942">
        <ele>169.19999694824</ele>
        <time>2011-01-14T11:39:24.000Z</time>
      </trkpt>
      <trkpt lat="43.60523" lon="7.02932">
        <ele>168</ele>
        <time>2011-01-14T11:39:25.000Z</time>
      </trkpt>
      <trkpt lat="43.60508" lon="7.029">
        <ele>165.39999389648</ele>
        <time>2011-01-14T11:39:29.000Z</time>
      </trkpt>
      <trkpt lat="43.6049" lon="7.02882">
        <ele>165.60000610352</ele>
        <time>2011-01-14T11:39:33.000Z</time>
      </trkpt>
      <trkpt lat="43.60482" lon="7.0288">
        <ele>166.19999694824</ele>
        <time>2011-01-14T11:39:35.000Z</time>
      </trkpt>
      <trkpt lat="43.6047" lon="7.02875">
        <ele>167.19999694824</ele>
        <time>2011-01-14T11:39:39.000Z</time>
      </trkpt>
      <trkpt lat="43.60451" lon="7.02868">
        <ele>168.39999389648</ele>
        <time>2011-01-14T11:39:46.000Z</time>
      </trkpt>
      <trkpt lat="43.60439" lon="7.02854">
        <ele>168</ele>
        <time>2011-01-14T11:39:51.000Z</time>
      </trkpt>
      <trkpt lat="43.6042" lon="7.02841">
        <ele>168.39999389648</ele>
        <time>2011-01-14T11:39:56.000Z</time>
      </trkpt>
      <trkpt lat="43.60405" lon="7.02839">
        <ele>169.39999389648</ele>
        <time>2011-01-14T11:40:00.000Z</time>
      </trkpt>
      <trkpt lat="43.60384" lon="7.02833">
        <ele>169.80000305176</ele>
        <time>2011-01-14T11:40:07.000Z</time>
      </trkpt>
      <trkpt lat="43.60369" lon="7.0283">
        <ele>170.39999389648</ele>
        <time>2011-01-14T11:40:12.000Z</time>
      </trkpt>
      <trkpt lat="43.60353" lon="7.02828">
        <ele>171</ele>
        <time>2011-01-14T11:40:17.000Z</time>
      </trkpt>
      <trkpt lat="43.60338" lon="7.02827">
        <ele>171.80000305176</ele>
        <time>2011-01-14T11:40:22.000Z</time>
      </trkpt>
      <trkpt lat="43.60323" lon="7.02827">
        <ele>172</ele>
        <time>2011-01-14T11:40:27.000Z</time>
      </trkpt>
      <trkpt lat="43.60307" lon="7.02826">
        <ele>172</ele>
        <time>2011-01-14T11:40:32.000Z</time>
      </trkpt>
      <trkpt lat="43.60291" lon="7.02833">
        <ele>172.80000305176</ele>
        <time>2011-01-14T11:40:38.000Z</time>
      </trkpt>
      <trkpt lat="43.60278" lon="7.02836">
        <ele>173.60000610352</ele>
        <time>2011-01-14T11:40:42.000Z</time>
      </trkpt>
      <trkpt lat="43.60267" lon="7.02842">
        <ele>174.80000305176</ele>
        <time>2011-01-14T11:40:46.000Z</time>
      </trkpt>
      <trkpt lat="43.60249" lon="7.02846">
        <ele>175.39999389648</ele>
        <time>2011-01-14T11:40:51.000Z</time>
      </trkpt>
      <trkpt lat="43.60234" lon="7.02851">
        <ele>175.80000305176</ele>
        <time>2011-01-14T11:40:56.000Z</time>
      </trkpt>
      <trkpt lat="43.60214" lon="7.02861">
        <ele>176.39999389648</ele>
        <time>2011-01-14T11:41:02.000Z</time>
      </trkpt>
      <trkpt lat="43.60198" lon="7.0287">
        <ele>176.80000305176</ele>
        <time>2011-01-14T11:41:07.000Z</time>
      </trkpt>
      <trkpt lat="43.60173" lon="7.02879">
        <ele>176</ele>
        <time>2011-01-14T11:41:13.000Z</time>
      </trkpt>
      <trkpt lat="43.6016" lon="7.02884">
        <ele>175.60000610352</ele>
        <time>2011-01-14T11:41:16.000Z</time>
      </trkpt>
      <trkpt lat="43.60151" lon="7.02887">
        <ele>175.39999389648</ele>
        <time>2011-01-14T11:41:18.000Z</time>
      </trkpt>
      <trkpt lat="43.60129" lon="7.02887">
        <ele>174</ele>
        <time>2011-01-14T11:41:22.000Z</time>
      </trkpt>
      <trkpt lat="43.60127" lon="7.02881">
        <ele>173.39999389648</ele>
        <time>2011-01-14T11:41:27.000Z</time>
      </trkpt>
      <trkpt lat="43.60128" lon="7.0288">
        <ele>173.39999389648</ele>
        <time>2011-01-14T11:41:36.000Z</time>
      </trkpt>
      <trkpt lat="43.60126" lon="7.0288">
        <ele>173.19999694824</ele>
        <time>2011-01-14T11:41:40.000Z</time>
      </trkpt>
      <trkpt lat="43.60125" lon="7.02881">
        <ele>173.39999389648</ele>
        <time>2011-01-14T11:41:42.000Z</time>
      </trkpt>
      <trkpt lat="43.6013" lon="7.02881">
        <ele>173.60000610352</ele>
        <time>2011-01-14T11:41:47.000Z</time>
      </trkpt>
      <trkpt lat="43.60133" lon="7.02884">
        <ele>174</ele>
        <time>2011-01-14T11:41:55.000Z</time>
      </trkpt>
      <trkpt lat="43.60129" lon="7.0288">
        <ele>173.60000610352</ele>
        <time>2011-01-14T11:42:03.000Z</time>
      </trkpt>
      <trkpt lat="43.60127" lon="7.02881">
        <ele>173.39999389648</ele>
        <time>2011-01-14T11:42:13.000Z</time>
      </trkpt>
      <trkpt lat="43.60124" lon="7.02879">
        <ele>173</ele>
        <time>2011-01-14T11:42:23.000Z</time>
      </trkpt>
      <trkpt lat="43.60125" lon="7.02866">
        <ele>172.19999694824</ele>
        <time>2011-01-14T11:42:28.000Z</time>
      </trkpt>
      <trkpt lat="43.60128" lon="7.02856">
        <ele>171.60000610352</ele>
        <time>2011-01-14T11:42:32.000Z</time>
      </trkpt>
      <trkpt lat="43.60127" lon="7.02853">
        <ele>171.39999389648</ele>
        <time>2011-01-14T11:42:35.000Z</time>
      </trkpt>
      <trkpt lat="43.60117" lon="7.02838">
        <ele>170.19999694824</ele>
        <time>2011-01-14T11:42:40.000Z</time>
      </trkpt>
      <trkpt lat="43.601" lon="7.02825">
        <ele>170.19999694824</ele>
        <time>2011-01-14T11:42:45.000Z</time>
      </trkpt>
      <trkpt lat="43.60078" lon="7.02823">
        <ele>170.60000610352</ele>
        <time>2011-01-14T11:42:51.000Z</time>
      </trkpt>
      <trkpt lat="43.60063" lon="7.02828">
        <ele>170.80000305176</ele>
        <time>2011-01-14T11:42:56.000Z</time>
      </trkpt>
      <trkpt lat="43.6005" lon="7.02839">
        <ele>170.80000305176</ele>
        <time>2011-01-14T11:43:00.000Z</time>
      </trkpt>
      <trkpt lat="43.6003" lon="7.02848">
        <ele>171</ele>
        <time>2011-01-14T11:43:08.000Z</time>
      </trkpt>
      <trkpt lat="43.60016" lon="7.02854">
        <ele>171.19999694824</ele>
        <time>2011-01-14T11:43:13.000Z</time>
      </trkpt>
      <trkpt lat="43.60001" lon="7.02861">
        <ele>171.19999694824</ele>
        <time>2011-01-14T11:43:19.000Z</time>
      </trkpt>
      <trkpt lat="43.59985" lon="7.02868">
        <ele>172</ele>
        <time>2011-01-14T11:43:25.000Z</time>
      </trkpt>
      <trkpt lat="43.59964" lon="7.02877">
        <ele>173</ele>
        <time>2011-01-14T11:43:33.000Z</time>
      </trkpt>
      <trkpt lat="43.59948" lon="7.02883">
        <ele>173.39999389648</ele>
        <time>2011-01-14T11:43:39.000Z</time>
      </trkpt>
      <trkpt lat="43.59933" lon="7.0289">
        <ele>173.39999389648</ele>
        <time>2011-01-14T11:43:45.000Z</time>
      </trkpt>
      <trkpt lat="43.59913" lon="7.029">
        <ele>173</ele>
        <time>2011-01-14T11:43:52.000Z</time>
      </trkpt>
      <trkpt lat="43.59893" lon="7.02922">
        <ele>172.60000610352</ele>
        <time>2011-01-14T11:44:00.000Z</time>
      </trkpt>
      <trkpt lat="43.59874" lon="7.02939">
        <ele>173.80000305176</ele>
        <time>2011-01-14T11:44:07.000Z</time>
      </trkpt>
      <trkpt lat="43.59855" lon="7.02956">
        <ele>174.80000305176</ele>
        <time>2011-01-14T11:44:14.000Z</time>
      </trkpt>
      <trkpt lat="43.59841" lon="7.02976">
        <ele>175.19999694824</ele>
        <time>2011-01-14T11:44:20.000Z</time>
      </trkpt>
      <trkpt lat="43.59822" lon="7.02988">
        <ele>176.80000305176</ele>
        <time>2011-01-14T11:44:27.000Z</time>
      </trkpt>
      <trkpt lat="43.59817" lon="7.0299">
        <ele>177.60000610352</ele>
        <time>2011-01-14T11:44:29.000Z</time>
      </trkpt>
      <trkpt lat="43.59805" lon="7.02978">
        <ele>179.80000305176</ele>
        <time>2011-01-14T11:44:34.000Z</time>
      </trkpt>
      <trkpt lat="43.59791" lon="7.02967">
        <ele>182.19999694824</ele>
        <time>2011-01-14T11:44:40.000Z</time>
      </trkpt>
      <trkpt lat="43.59793" lon="7.02954">
        <ele>182.19999694824</ele>
        <time>2011-01-14T11:44:45.000Z</time>
      </trkpt>
      <trkpt lat="43.59793" lon="7.02946">
        <ele>182.60000610352</ele>
        <time>2011-01-14T11:44:49.000Z</time>
      </trkpt>
      <trkpt lat="43.59793" lon="7.02943">
        <ele>182.80000305176</ele>
        <time>2011-01-14T11:44:50.000Z</time>
      </trkpt>
      <trkpt lat="43.59799" lon="7.02924">
        <ele>182.60000610352</ele>
        <time>2011-01-14T11:44:57.000Z</time>
      </trkpt>
      <trkpt lat="43.598" lon="7.02917">
        <ele>182.60000610352</ele>
        <time>2011-01-14T11:44:59.000Z</time>
      </trkpt>
      <trkpt lat="43.59803" lon="7.02898">
        <ele>183.39999389648</ele>
        <time>2011-01-14T11:45:05.000Z</time>
      </trkpt>
      <trkpt lat="43.59802" lon="7.02883">
        <ele>184.80000305176</ele>
        <time>2011-01-14T11:45:09.000Z</time>
      </trkpt>
      <trkpt lat="43.598" lon="7.02856">
        <ele>187.39999389648</ele>
        <time>2011-01-14T11:45:16.000Z</time>
      </trkpt>
      <trkpt lat="43.59794" lon="7.02819">
        <ele>191.19999694824</ele>
        <time>2011-01-14T11:45:24.000Z</time>
      </trkpt>
      <trkpt lat="43.59794" lon="7.0281">
        <ele>192</ele>
        <time>2011-01-14T11:45:26.000Z</time>
      </trkpt>
      <trkpt lat="43.59805" lon="7.02792">
        <ele>192.60000610352</ele>
        <time>2011-01-14T11:45:31.000Z</time>
      </trkpt>
      <trkpt lat="43.59818" lon="7.02792">
        <ele>191.60000610352</ele>
        <time>2011-01-14T11:45:35.000Z</time>
      </trkpt>
      <trkpt lat="43.59824" lon="7.02794">
        <ele>190.80000305176</ele>
        <time>2011-01-14T11:45:37.000Z</time>
      </trkpt>
      <trkpt lat="43.59849" lon="7.02799">
        <ele>188.60000610352</ele>
        <time>2011-01-14T11:45:44.000Z</time>
      </trkpt>
      <trkpt lat="43.59869" lon="7.028">
        <ele>188</ele>
        <time>2011-01-14T11:45:50.000Z</time>
      </trkpt>
      <trkpt lat="43.59886" lon="7.02795">
        <ele>188.19999694824</ele>
        <time>2011-01-14T11:45:55.000Z</time>
      </trkpt>
      <trkpt lat="43.59902" lon="7.02782">
        <ele>190</ele>
        <time>2011-01-14T11:46:01.000Z</time>
      </trkpt>
      <trkpt lat="43.59927" lon="7.02761">
        <ele>191.19999694824</ele>
        <time>2011-01-14T11:46:10.000Z</time>
      </trkpt>
      <trkpt lat="43.5994" lon="7.0274">
        <ele>191.39999389648</ele>
        <time>2011-01-14T11:46:16.000Z</time>
      </trkpt>
      <trkpt lat="43.59947" lon="7.02717">
        <ele>192.19999694824</ele>
        <time>2011-01-14T11:46:22.000Z</time>
      </trkpt>
      <trkpt lat="43.59952" lon="7.02696">
        <ele>193</ele>
        <time>2011-01-14T11:46:27.000Z</time>
      </trkpt>
      <trkpt lat="43.5996" lon="7.02673">
        <ele>193</ele>
        <time>2011-01-14T11:46:32.000Z</time>
      </trkpt>
      <trkpt lat="43.59962" lon="7.02645">
        <ele>194.60000610352</ele>
        <time>2011-01-14T11:46:38.000Z</time>
      </trkpt>
      <trkpt lat="43.59964" lon="7.02616">
        <ele>196.60000610352</ele>
        <time>2011-01-14T11:46:44.000Z</time>
      </trkpt>
      <trkpt lat="43.59966" lon="7.02596">
        <ele>197.60000610352</ele>
        <time>2011-01-14T11:46:48.000Z</time>
      </trkpt>
      <trkpt lat="43.59967" lon="7.02578">
        <ele>198.60000610352</ele>
        <time>2011-01-14T11:46:52.000Z</time>
      </trkpt>
      <trkpt lat="43.59969" lon="7.02551">
        <ele>199.19999694824</ele>
        <time>2011-01-14T11:46:58.000Z</time>
      </trkpt>
      <trkpt lat="43.59962" lon="7.02529">
        <ele>200.80000305176</ele>
        <time>2011-01-14T11:47:03.000Z</time>
      </trkpt>
      <trkpt lat="43.5996" lon="7.02505">
        <ele>201.60000610352</ele>
        <time>2011-01-14T11:47:08.000Z</time>
      </trkpt>
      <trkpt lat="43.59971" lon="7.02488">
        <ele>202</ele>
        <time>2011-01-14T11:47:13.000Z</time>
      </trkpt>
      <trkpt lat="43.59974" lon="7.02487">
        <ele>202</ele>
        <time>2011-01-14T11:47:14.000Z</time>
      </trkpt>
      <trkpt lat="43.59988" lon="7.02496">
        <ele>199.60000610352</ele>
        <time>2011-01-14T11:47:19.000Z</time>
      </trkpt>
      <trkpt lat="43.59998" lon="7.02514">
        <ele>197</ele>
        <time>2011-01-14T11:47:24.000Z</time>
      </trkpt>
      <trkpt lat="43.60009" lon="7.02532">
        <ele>196.39999389648</ele>
        <time>2011-01-14T11:47:30.000Z</time>
      </trkpt>
      <trkpt lat="43.60027" lon="7.02555">
        <ele>196.19999694824</ele>
        <time>2011-01-14T11:47:38.000Z</time>
      </trkpt>
      <trkpt lat="43.60038" lon="7.02571">
        <ele>195.19999694824</ele>
        <time>2011-01-14T11:47:43.000Z</time>
      </trkpt>
      <trkpt lat="43.6005" lon="7.02584">
        <ele>194.39999389648</ele>
        <time>2011-01-14T11:47:48.000Z</time>
      </trkpt>
      <trkpt lat="43.60065" lon="7.02591">
        <ele>194.60000610352</ele>
        <time>2011-01-14T11:47:53.000Z</time>
      </trkpt>
      <trkpt lat="43.60086" lon="7.02588">
        <ele>196</ele>
        <time>2011-01-14T11:48:00.000Z</time>
      </trkpt>
      <trkpt lat="43.601" lon="7.02583">
        <ele>195.80000305176</ele>
        <time>2011-01-14T11:48:05.000Z</time>
      </trkpt>
      <trkpt lat="43.60114" lon="7.02572">
        <ele>196.80000305176</ele>
        <time>2011-01-14T11:48:11.000Z</time>
      </trkpt>
      <trkpt lat="43.60127" lon="7.02555">
        <ele>198.80000305176</ele>
        <time>2011-01-14T11:48:18.000Z</time>
      </trkpt>
      <trkpt lat="43.60137" lon="7.02544">
        <ele>200.19999694824</ele>
        <time>2011-01-14T11:48:23.000Z</time>
      </trkpt>
      <trkpt lat="43.60147" lon="7.02528">
        <ele>202.19999694824</ele>
        <time>2011-01-14T11:48:29.000Z</time>
      </trkpt>
      <trkpt lat="43.60157" lon="7.02514">
        <ele>204</ele>
        <time>2011-01-14T11:48:35.000Z</time>
      </trkpt>
      <trkpt lat="43.60165" lon="7.02501">
        <ele>205.80000305176</ele>
        <time>2011-01-14T11:48:40.000Z</time>
      </trkpt>
      <trkpt lat="43.60173" lon="7.02483">
        <ele>205.39999389648</ele>
        <time>2011-01-14T11:48:46.000Z</time>
      </trkpt>
      <trkpt lat="43.60178" lon="7.02465">
        <ele>205.19999694824</ele>
        <time>2011-01-14T11:48:52.000Z</time>
      </trkpt>
      <trkpt lat="43.60178" lon="7.02451">
        <ele>206</ele>
        <time>2011-01-14T11:48:57.000Z</time>
      </trkpt>
      <trkpt lat="43.60178" lon="7.0243">
        <ele>207.19999694824</ele>
        <time>2011-01-14T11:49:04.000Z</time>
      </trkpt>
      <trkpt lat="43.60179" lon="7.02407">
        <ele>207.19999694824</ele>
        <time>2011-01-14T11:49:11.000Z</time>
      </trkpt>
      <trkpt lat="43.60178" lon="7.02389">
        <ele>207</ele>
        <time>2011-01-14T11:49:16.000Z</time>
      </trkpt>
      <trkpt lat="43.60177" lon="7.02364">
        <ele>206.60000610352</ele>
        <time>2011-01-14T11:49:23.000Z</time>
      </trkpt>
      <trkpt lat="43.60171" lon="7.02344">
        <ele>207.39999389648</ele>
        <time>2011-01-14T11:49:29.000Z</time>
      </trkpt>
      <trkpt lat="43.60164" lon="7.02332">
        <ele>208.60000610352</ele>
        <time>2011-01-14T11:49:34.000Z</time>
      </trkpt>
      <trkpt lat="43.6015" lon="7.02313">
        <ele>210.80000305176</ele>
        <time>2011-01-14T11:49:42.000Z</time>
      </trkpt>
      <trkpt lat="43.60141" lon="7.02301">
        <ele>212.60000610352</ele>
        <time>2011-01-14T11:49:48.000Z</time>
      </trkpt>
      <trkpt lat="43.60132" lon="7.02293">
        <ele>214.39999389648</ele>
        <time>2011-01-14T11:49:53.000Z</time>
      </trkpt>
      <trkpt lat="43.60123" lon="7.02277">
        <ele>215.80000305176</ele>
        <time>2011-01-14T11:49:59.000Z</time>
      </trkpt>
      <trkpt lat="43.60112" lon="7.02263">
        <ele>218</ele>
        <time>2011-01-14T11:50:05.000Z</time>
      </trkpt>
      <trkpt lat="43.60104" lon="7.02249">
        <ele>219.60000610352</ele>
        <time>2011-01-14T11:50:10.000Z</time>
      </trkpt>
      <trkpt lat="43.60097" lon="7.02235">
        <ele>220.80000305176</ele>
        <time>2011-01-14T11:50:16.000Z</time>
      </trkpt>
      <trkpt lat="43.60088" lon="7.02219">
        <ele>222.19999694824</ele>
        <time>2011-01-14T11:50:22.000Z</time>
      </trkpt>
      <trkpt lat="43.60083" lon="7.02204">
        <ele>222.80000305176</ele>
        <time>2011-01-14T11:50:27.000Z</time>
      </trkpt>
      <trkpt lat="43.60074" lon="7.02184">
        <ele>223.19999694824</ele>
        <time>2011-01-14T11:50:34.000Z</time>
      </trkpt>
      <trkpt lat="43.60066" lon="7.02169">
        <ele>224</ele>
        <time>2011-01-14T11:50:39.000Z</time>
      </trkpt>
      <trkpt lat="43.60059" lon="7.02168">
        <ele>225</ele>
        <time>2011-01-14T11:50:42.000Z</time>
      </trkpt>
      <trkpt lat="43.60058" lon="7.02177">
        <ele>225.39999389648</ele>
        <time>2011-01-14T11:50:46.000Z</time>
      </trkpt>
      <trkpt lat="43.60059" lon="7.0219">
        <ele>225.39999389648</ele>
        <time>2011-01-14T11:50:51.000Z</time>
      </trkpt>
      <trkpt lat="43.6006" lon="7.022">
        <ele>225.39999389648</ele>
        <time>2011-01-14T11:50:54.000Z</time>
      </trkpt>
      <trkpt lat="43.60064" lon="7.02227">
        <ele>225.80000305176</ele>
        <time>2011-01-14T11:51:02.000Z</time>
      </trkpt>
      <trkpt lat="43.60066" lon="7.02253">
        <ele>226.19999694824</ele>
        <time>2011-01-14T11:51:09.000Z</time>
      </trkpt>
      <trkpt lat="43.60071" lon="7.02273">
        <ele>226</ele>
        <time>2011-01-14T11:51:14.000Z</time>
      </trkpt>
      <trkpt lat="43.60076" lon="7.02294">
        <ele>226.19999694824</ele>
        <time>2011-01-14T11:51:19.000Z</time>
      </trkpt>
      <trkpt lat="43.60069" lon="7.02308">
        <ele>226.39999389648</ele>
        <time>2011-01-14T11:51:23.000Z</time>
      </trkpt>
      <trkpt lat="43.60066" lon="7.02309">
        <ele>226.60000610352</ele>
        <time>2011-01-14T11:51:24.000Z</time>
      </trkpt>
      <trkpt lat="43.60053" lon="7.02303">
        <ele>226.80000305176</ele>
        <time>2011-01-14T11:51:29.000Z</time>
      </trkpt>
      <trkpt lat="43.60032" lon="7.02287">
        <ele>227.60000610352</ele>
        <time>2011-01-14T11:51:35.000Z</time>
      </trkpt>
      <trkpt lat="43.60017" lon="7.02284">
        <ele>228.19999694824</ele>
        <time>2011-01-14T11:51:38.000Z</time>
      </trkpt>
      <trkpt lat="43.5999" lon="7.02287">
        <ele>228.60000610352</ele>
        <time>2011-01-14T11:51:44.000Z</time>
      </trkpt>
      <trkpt lat="43.59979" lon="7.02288">
        <ele>228.60000610352</ele>
        <time>2011-01-14T11:51:47.000Z</time>
      </trkpt>
      <trkpt lat="43.59962" lon="7.02287">
        <ele>228.80000305176</ele>
        <time>2011-01-14T11:51:53.000Z</time>
      </trkpt>
      <trkpt lat="43.59957" lon="7.02287">
        <ele>228.80000305176</ele>
        <time>2011-01-14T11:51:55.000Z</time>
      </trkpt>
      <trkpt lat="43.59943" lon="7.02287">
        <ele>228.80000305176</ele>
        <time>2011-01-14T11:52:00.000Z</time>
      </trkpt>
      <trkpt lat="43.59925" lon="7.02289">
        <ele>228.80000305176</ele>
        <time>2011-01-14T11:52:06.000Z</time>
      </trkpt>
      <trkpt lat="43.59904" lon="7.02288">
        <ele>229.19999694824</ele>
        <time>2011-01-14T11:52:11.000Z</time>
      </trkpt>
      <trkpt lat="43.59889" lon="7.02287">
        <ele>229.60000610352</ele>
        <time>2011-01-14T11:52:14.000Z</time>
      </trkpt>
      <trkpt lat="43.59866" lon="7.02285">
        <ele>230.19999694824</ele>
        <time>2011-01-14T11:52:19.000Z</time>
      </trkpt>
      <trkpt lat="43.59851" lon="7.02287">
        <ele>230.39999389648</ele>
        <time>2011-01-14T11:52:22.000Z</time>
      </trkpt>
      <trkpt lat="43.59832" lon="7.02295">
        <ele>230.80000305176</ele>
        <time>2011-01-14T11:52:26.000Z</time>
      </trkpt>
      <trkpt lat="43.5981" lon="7.02295">
        <ele>230.19999694824</ele>
        <time>2011-01-14T11:52:32.000Z</time>
      </trkpt>
      <trkpt lat="43.598" lon="7.02291">
        <ele>230</ele>
        <time>2011-01-14T11:52:35.000Z</time>
      </trkpt>
      <trkpt lat="43.59785" lon="7.02284">
        <ele>229.19999694824</ele>
        <time>2011-01-14T11:52:41.000Z</time>
      </trkpt>
      <trkpt lat="43.59772" lon="7.02289">
        <ele>229</ele>
        <time>2011-01-14T11:52:45.000Z</time>
      </trkpt>
      <trkpt lat="43.59754" lon="7.02285">
        <ele>228.19999694824</ele>
        <time>2011-01-14T11:52:49.000Z</time>
      </trkpt>
      <trkpt lat="43.59727" lon="7.02275">
        <ele>226.19999694824</ele>
        <time>2011-01-14T11:52:52.000Z</time>
      </trkpt>
      <trkpt lat="43.59684" lon="7.02267">
        <ele>223.60000610352</ele>
        <time>2011-01-14T11:52:56.000Z</time>
      </trkpt>
      <trkpt lat="43.59674" lon="7.02267">
        <ele>223</ele>
        <time>2011-01-14T11:52:57.000Z</time>
      </trkpt>
      <trkpt lat="43.59651" lon="7.02274">
        <ele>221.80000305176</ele>
        <time>2011-01-14T11:53:00.000Z</time>
      </trkpt>
      <trkpt lat="43.59639" lon="7.02277">
        <ele>221.19999694824</ele>
        <time>2011-01-14T11:53:02.000Z</time>
      </trkpt>
      <trkpt lat="43.59617" lon="7.02267">
        <ele>221</ele>
        <time>2011-01-14T11:53:06.000Z</time>
      </trkpt>
      <trkpt lat="43.59605" lon="7.02261">
        <ele>220.80000305176</ele>
        <time>2011-01-14T11:53:08.000Z</time>
      </trkpt>
      <trkpt lat="43.59593" lon="7.02257">
        <ele>220.80000305176</ele>
        <time>2011-01-14T11:53:10.000Z</time>
      </trkpt>
      <trkpt lat="43.59568" lon="7.02243">
        <ele>220.39999389648</ele>
        <time>2011-01-14T11:53:15.000Z</time>
      </trkpt>
      <trkpt lat="43.59553" lon="7.0224">
        <ele>220.19999694824</ele>
        <time>2011-01-14T11:53:19.000Z</time>
      </trkpt>
      <trkpt lat="43.59545" lon="7.02218">
        <ele>219.19999694824</ele>
        <time>2011-01-14T11:53:25.000Z</time>
      </trkpt>
      <trkpt lat="43.59544" lon="7.02201">
        <ele>218.60000610352</ele>
        <time>2011-01-14T11:53:29.000Z</time>
      </trkpt>
      <trkpt lat="43.59533" lon="7.02194">
        <ele>218.19999694824</ele>
        <time>2011-01-14T11:53:33.000Z</time>
      </trkpt>
      <trkpt lat="43.59518" lon="7.02182">
        <ele>217.60000610352</ele>
        <time>2011-01-14T11:53:37.000Z</time>
      </trkpt>
      <trkpt lat="43.59503" lon="7.02164">
        <ele>216.80000305176</ele>
        <time>2011-01-14T11:53:40.000Z</time>
      </trkpt>
      <trkpt lat="43.59493" lon="7.02142">
        <ele>216.39999389648</ele>
        <time>2011-01-14T11:53:44.000Z</time>
      </trkpt>
      <trkpt lat="43.59486" lon="7.02131">
        <ele>216.39999389648</ele>
        <time>2011-01-14T11:53:46.000Z</time>
      </trkpt>
      <trkpt lat="43.59482" lon="7.021">
        <ele>216.39999389648</ele>
        <time>2011-01-14T11:53:50.000Z</time>
      </trkpt>
      <trkpt lat="43.59482" lon="7.02093">
        <ele>216.39999389648</ele>
        <time>2011-01-14T11:53:51.000Z</time>
      </trkpt>
      <trkpt lat="43.59484" lon="7.02073">
        <ele>216.39999389648</ele>
        <time>2011-01-14T11:53:55.000Z</time>
      </trkpt>
      <trkpt lat="43.59483" lon="7.0206">
        <ele>216.60000610352</ele>
        <time>2011-01-14T11:53:59.000Z</time>
      </trkpt>
      <trkpt lat="43.59478" lon="7.02026">
        <ele>217.60000610352</ele>
        <time>2011-01-14T11:54:06.000Z</time>
      </trkpt>
      <trkpt lat="43.59473" lon="7.02002">
        <ele>218.39999389648</ele>
        <time>2011-01-14T11:54:12.000Z</time>
      </trkpt>
      <trkpt lat="43.59474" lon="7.01983">
        <ele>219.39999389648</ele>
        <time>2011-01-14T11:54:17.000Z</time>
      </trkpt>
      <trkpt lat="43.59483" lon="7.01972">
        <ele>219.80000305176</ele>
        <time>2011-01-14T11:54:21.000Z</time>
      </trkpt>
      <trkpt lat="43.59495" lon="7.01966">
        <ele>220</ele>
        <time>2011-01-14T11:54:25.000Z</time>
      </trkpt>
      <trkpt lat="43.59499" lon="7.01963">
        <ele>220</ele>
        <time>2011-01-14T11:54:29.000Z</time>
      </trkpt>
      <trkpt lat="43.59503" lon="7.01958">
        <ele>220.19999694824</ele>
        <time>2011-01-14T11:54:42.000Z</time>
      </trkpt>
      <trkpt lat="43.59516" lon="7.01966">
        <ele>218.60000610352</ele>
        <time>2011-01-14T11:54:46.000Z</time>
      </trkpt>
      <trkpt lat="43.59534" lon="7.01968">
        <ele>217.19999694824</ele>
        <time>2011-01-14T11:54:49.000Z</time>
      </trkpt>
      <trkpt lat="43.59564" lon="7.01963">
        <ele>215.60000610352</ele>
        <time>2011-01-14T11:54:53.000Z</time>
      </trkpt>
      <trkpt lat="43.59605" lon="7.01949">
        <ele>213.80000305176</ele>
        <time>2011-01-14T11:54:58.000Z</time>
      </trkpt>
      <trkpt lat="43.59629" lon="7.01939">
        <ele>212</ele>
        <time>2011-01-14T11:55:01.000Z</time>
      </trkpt>
      <trkpt lat="43.59645" lon="7.01936">
        <ele>210.39999389648</ele>
        <time>2011-01-14T11:55:03.000Z</time>
      </trkpt>
      <trkpt lat="43.59668" lon="7.01923">
        <ele>208.60000610352</ele>
        <time>2011-01-14T11:55:07.000Z</time>
      </trkpt>
      <trkpt lat="43.5969" lon="7.01904">
        <ele>207.39999389648</ele>
        <time>2011-01-14T11:55:11.000Z</time>
      </trkpt>
      <trkpt lat="43.59716" lon="7.01871">
        <ele>205</ele>
        <time>2011-01-14T11:55:16.000Z</time>
      </trkpt>
      <trkpt lat="43.59741" lon="7.01843">
        <ele>202.19999694824</ele>
        <time>2011-01-14T11:55:20.000Z</time>
      </trkpt>
      <trkpt lat="43.59765" lon="7.0181">
        <ele>200.80000305176</ele>
        <time>2011-01-14T11:55:25.000Z</time>
      </trkpt>
      <trkpt lat="43.59767" lon="7.01806">
        <ele>200.80000305176</ele>
        <time>2011-01-14T11:55:26.000Z</time>
      </trkpt>
      <trkpt lat="43.59769" lon="7.01802">
        <ele>200.80000305176</ele>
        <time>2011-01-14T11:55:34.000Z</time>
      </trkpt>
      <trkpt lat="43.59768" lon="7.01796">
        <ele>200.80000305176</ele>
        <time>2011-01-14T11:55:49.000Z</time>
      </trkpt>
      <trkpt lat="43.5977" lon="7.01786">
        <ele>200.80000305176</ele>
        <time>2011-01-14T11:55:55.000Z</time>
      </trkpt>
      <trkpt lat="43.59771" lon="7.01775">
        <ele>200.80000305176</ele>
        <time>2011-01-14T11:55:59.000Z</time>
      </trkpt>
      <trkpt lat="43.5977" lon="7.01763">
        <ele>200.80000305176</ele>
        <time>2011-01-14T11:56:05.000Z</time>
      </trkpt>
      <trkpt lat="43.59761" lon="7.01748">
        <ele>201.60000610352</ele>
        <time>2011-01-14T11:56:12.000Z</time>
      </trkpt>
      <trkpt lat="43.59752" lon="7.01731">
        <ele>203.60000610352</ele>
        <time>2011-01-14T11:56:19.000Z</time>
      </trkpt>
      <trkpt lat="43.59749" lon="7.01722">
        <ele>204.60000610352</ele>
        <time>2011-01-14T11:56:23.000Z</time>
      </trkpt>
      <trkpt lat="43.59741" lon="7.0171">
        <ele>206.19999694824</ele>
        <time>2011-01-14T11:56:29.000Z</time>
      </trkpt>
      <trkpt lat="43.59734" lon="7.01692">
        <ele>208.39999389648</ele>
        <time>2011-01-14T11:56:36.000Z</time>
      </trkpt>
      <trkpt lat="43.59732" lon="7.01682">
        <ele>209.39999389648</ele>
        <time>2011-01-14T11:56:40.000Z</time>
      </trkpt>
      <trkpt lat="43.59734" lon="7.01672">
        <ele>210.39999389648</ele>
        <time>2011-01-14T11:56:44.000Z</time>
      </trkpt>
      <trkpt lat="43.59739" lon="7.01647">
        <ele>211</ele>
        <time>2011-01-14T11:56:52.000Z</time>
      </trkpt>
      <trkpt lat="43.59741" lon="7.01638">
        <ele>211.19999694824</ele>
        <time>2011-01-14T11:56:56.000Z</time>
      </trkpt>
      <trkpt lat="43.59739" lon="7.01624">
        <ele>211.80000305176</ele>
        <time>2011-01-14T11:57:02.000Z</time>
      </trkpt>
      <trkpt lat="43.59738" lon="7.01621">
        <ele>212</ele>
        <time>2011-01-14T11:57:04.000Z</time>
      </trkpt>
      <trkpt lat="43.59737" lon="7.01617">
        <ele>212.19999694824</ele>
        <time>2011-01-14T11:57:07.000Z</time>
      </trkpt>
      <trkpt lat="43.59737" lon="7.01614">
        <ele>212.39999389648</ele>
        <time>2011-01-14T11:57:14.000Z</time>
      </trkpt>
      <trkpt lat="43.59736" lon="7.01613">
        <ele>212.60000610352</ele>
        <time>2011-01-14T11:57:20.000Z</time>
      </trkpt>
      <trkpt lat="43.59732" lon="7.0161">
        <ele>213</ele>
        <time>2011-01-14T11:57:25.000Z</time>
      </trkpt>
      <trkpt lat="43.59728" lon="7.01607">
        <ele>213.80000305176</ele>
        <time>2011-01-14T11:57:32.000Z</time>
      </trkpt>
      <trkpt lat="43.59724" lon="7.01607">
        <ele>214.39999389648</ele>
        <time>2011-01-14T11:57:39.000Z</time>
      </trkpt>
      <trkpt lat="43.59721" lon="7.01605">
        <ele>215</ele>
        <time>2011-01-14T11:57:50.000Z</time>
      </trkpt>
      <trkpt lat="43.5972" lon="7.01606">
        <ele>215</ele>
        <time>2011-01-14T11:58:03.000Z</time>
      </trkpt>
      <trkpt lat="43.59718" lon="7.01603">
        <ele>215.60000610352</ele>
        <time>2011-01-14T11:58:10.000Z</time>
      </trkpt>
      <trkpt lat="43.5972" lon="7.01605">
        <ele>215</ele>
        <time>2011-01-14T11:58:23.000Z</time>
      </trkpt>
      <trkpt lat="43.59722" lon="7.01604">
        <ele>214.80000305176</ele>
        <time>2011-01-14T11:58:29.000Z</time>
      </trkpt>
      <trkpt lat="43.59722" lon="7.01603">
        <ele>215</ele>
        <time>2011-01-14T11:58:38.000Z</time>
      </trkpt>
      <trkpt lat="43.59725" lon="7.01603">
        <ele>214.60000610352</ele>
        <time>2011-01-14T11:58:44.000Z</time>
      </trkpt>
      <trkpt lat="43.59724" lon="7.01603">
        <ele>214.60000610352</ele>
        <time>2011-01-14T11:58:51.000Z</time>
      </trkpt>
      <trkpt lat="43.59723" lon="7.01603">
        <ele>214.80000305176</ele>
        <time>2011-01-14T11:59:00.000Z</time>
      </trkpt>
      <trkpt lat="43.59723" lon="7.01602">
        <ele>214.80000305176</ele>
        <time>2011-01-14T11:59:08.000Z</time>
      </trkpt>
      <trkpt lat="43.59722" lon="7.016">
        <ele>215</ele>
        <time>2011-01-14T11:59:16.000Z</time>
      </trkpt>
      <trkpt lat="43.59721" lon="7.016">
        <ele>215.19999694824</ele>
        <time>2011-01-14T11:59:24.000Z</time>
      </trkpt>
      <trkpt lat="43.59719" lon="7.01599">
        <ele>215.60000610352</ele>
        <time>2011-01-14T11:59:33.000Z</time>
      </trkpt>
      <trkpt lat="43.59718" lon="7.01597">
        <ele>215.80000305176</ele>
        <time>2011-01-14T11:59:41.000Z</time>
      </trkpt>
      <trkpt lat="43.59717" lon="7.01593">
        <ele>216.19999694824</ele>
        <time>2011-01-14T11:59:45.000Z</time>
      </trkpt>
      <trkpt lat="43.59716" lon="7.01587">
        <ele>216.80000305176</ele>
        <time>2011-01-14T11:59:49.000Z</time>
      </trkpt>
      <trkpt lat="43.59717" lon="7.01585">
        <ele>216.80000305176</ele>
        <time>2011-01-14T11:59:55.000Z</time>
      </trkpt>
      <trkpt lat="43.59719" lon="7.01583">
        <ele>216.60000610352</ele>
        <time>2011-01-14T12:00:04.000Z</time>
      </trkpt>
      <trkpt lat="43.59717" lon="7.01582">
        <ele>216.80000305176</ele>
        <time>2011-01-14T12:00:11.000Z</time>
      </trkpt>
      <trkpt lat="43.59718" lon="7.01574">
        <ele>216.39999389648</ele>
        <time>2011-01-14T12:00:19.000Z</time>
      </trkpt>
      <trkpt lat="43.59717" lon="7.01559">
        <ele>216.19999694824</ele>
        <time>2011-01-14T12:00:24.000Z</time>
      </trkpt>
      <trkpt lat="43.59709" lon="7.01541">
        <ele>217.39999389648</ele>
        <time>2011-01-14T12:00:29.000Z</time>
      </trkpt>
      <trkpt lat="43.59696" lon="7.01519">
        <ele>220.80000305176</ele>
        <time>2011-01-14T12:00:36.000Z</time>
      </trkpt>
      <trkpt lat="43.59688" lon="7.01504">
        <ele>223</ele>
        <time>2011-01-14T12:00:41.000Z</time>
      </trkpt>
      <trkpt lat="43.59679" lon="7.01487">
        <ele>224.80000305176</ele>
        <time>2011-01-14T12:00:46.000Z</time>
      </trkpt>
      <trkpt lat="43.59671" lon="7.01467">
        <ele>225</ele>
        <time>2011-01-14T12:00:52.000Z</time>
      </trkpt>
      <trkpt lat="43.59661" lon="7.01446">
        <ele>224.39999389648</ele>
        <time>2011-01-14T12:00:57.000Z</time>
      </trkpt>
      <trkpt lat="43.59656" lon="7.01427">
        <ele>222.80000305176</ele>
        <time>2011-01-14T12:01:02.000Z</time>
      </trkpt>
      <trkpt lat="43.59655" lon="7.01416">
        <ele>222</ele>
        <time>2011-01-14T12:01:05.000Z</time>
      </trkpt>
      <trkpt lat="43.59654" lon="7.01414">
        <ele>221.60000610352</ele>
        <time>2011-01-14T12:01:10.000Z</time>
      </trkpt>
      <trkpt lat="43.59652" lon="7.01414">
        <ele>222</ele>
        <time>2011-01-14T12:01:20.000Z</time>
      </trkpt>
      <trkpt lat="43.59658" lon="7.0142">
        <ele>222</ele>
        <time>2011-01-14T12:01:25.000Z</time>
      </trkpt>
      <trkpt lat="43.5967" lon="7.01431">
        <ele>221.19999694824</ele>
        <time>2011-01-14T12:01:30.000Z</time>
      </trkpt>
      <trkpt lat="43.59671" lon="7.01418">
        <ele>219.39999389648</ele>
        <time>2011-01-14T12:01:34.000Z</time>
      </trkpt>
      <trkpt lat="43.5967" lon="7.01414">
        <ele>219.39999389648</ele>
        <time>2011-01-14T12:01:35.000Z</time>
      </trkpt>
      <trkpt lat="43.5966" lon="7.01385">
        <ele>216.39999389648</ele>
        <time>2011-01-14T12:01:41.000Z</time>
      </trkpt>
      <trkpt lat="43.59652" lon="7.01364">
        <ele>214</ele>
        <time>2011-01-14T12:01:45.000Z</time>
      </trkpt>
      <trkpt lat="43.5965" lon="7.01355">
        <ele>212.80000305176</ele>
        <time>2011-01-14T12:01:47.000Z</time>
      </trkpt>
      <trkpt lat="43.59654" lon="7.01349">
        <ele>211.39999389648</ele>
        <time>2011-01-14T12:01:49.000Z</time>
      </trkpt>
      <trkpt lat="43.59668" lon="7.01346">
        <ele>208.80000305176</ele>
        <time>2011-01-14T12:01:54.000Z</time>
      </trkpt>
      <trkpt lat="43.59675" lon="7.01339">
        <ele>205.80000305176</ele>
        <time>2011-01-14T12:01:58.000Z</time>
      </trkpt>
      <trkpt lat="43.59677" lon="7.01315">
        <ele>200.80000305176</ele>
        <time>2011-01-14T12:02:03.000Z</time>
      </trkpt>
      <trkpt lat="43.5968" lon="7.01294">
        <ele>196.19999694824</ele>
        <time>2011-01-14T12:02:08.000Z</time>
      </trkpt>
      <trkpt lat="43.59679" lon="7.01286">
        <ele>194.80000305176</ele>
        <time>2011-01-14T12:02:10.000Z</time>
      </trkpt>
      <trkpt lat="43.59676" lon="7.01271">
        <ele>192.19999694824</ele>
        <time>2011-01-14T12:02:14.000Z</time>
      </trkpt>
      <trkpt lat="43.59679" lon="7.01274">
        <ele>192.39999389648</ele>
        <time>2011-01-14T12:02:20.000Z</time>
      </trkpt>
      <trkpt lat="43.59676" lon="7.01278">
        <ele>193.60000610352</ele>
        <time>2011-01-14T12:02:24.000Z</time>
      </trkpt>
      <trkpt lat="43.59673" lon="7.01278">
        <ele>194.19999694824</ele>
        <time>2011-01-14T12:02:38.000Z</time>
      </trkpt>
      <trkpt lat="43.59674" lon="7.01278">
        <ele>193.80000305176</ele>
        <time>2011-01-14T12:02:45.000Z</time>
      </trkpt>
      <trkpt lat="43.59673" lon="7.01273">
        <ele>193.19999694824</ele>
        <time>2011-01-14T12:02:55.000Z</time>
      </trkpt>
      <trkpt lat="43.59674" lon="7.01274">
        <ele>193.19999694824</ele>
        <time>2011-01-14T12:03:26.000Z</time>
      </trkpt>
      <trkpt lat="43.59676" lon="7.01275">
        <ele>193</ele>
        <time>2011-01-14T12:03:38.000Z</time>
      </trkpt>
      <trkpt lat="43.59675" lon="7.01278">
        <ele>193.80000305176</ele>
        <time>2011-01-14T12:03:45.000Z</time>
      </trkpt>
      <trkpt lat="43.59671" lon="7.01275">
        <ele>193.80000305176</ele>
        <time>2011-01-14T12:03:57.000Z</time>
      </trkpt>
      <trkpt lat="43.5967" lon="7.01274">
        <ele>193.60000610352</ele>
        <time>2011-01-14T12:04:04.000Z</time>
      </trkpt>
      <trkpt lat="43.59672" lon="7.01261">
        <ele>190.60000610352</ele>
        <time>2011-01-14T12:04:09.000Z</time>
      </trkpt>
      <trkpt lat="43.59679" lon="7.01254">
        <ele>188.60000610352</ele>
        <time>2011-01-14T12:04:12.000Z</time>
      </trkpt>
      <trkpt lat="43.5969" lon="7.0126">
        <ele>188.60000610352</ele>
        <time>2011-01-14T12:04:16.000Z</time>
      </trkpt>
      <trkpt lat="43.59695" lon="7.01265">
        <ele>189</ele>
        <time>2011-01-14T12:04:18.000Z</time>
      </trkpt>
      <trkpt lat="43.59714" lon="7.01288">
        <ele>189.60000610352</ele>
        <time>2011-01-14T12:04:26.000Z</time>
      </trkpt>
      <trkpt lat="43.59734" lon="7.01316">
        <ele>188.60000610352</ele>
        <time>2011-01-14T12:04:33.000Z</time>
      </trkpt>
      <trkpt lat="43.59753" lon="7.01346">
        <ele>186.80000305176</ele>
        <time>2011-01-14T12:04:41.000Z</time>
      </trkpt>
      <trkpt lat="43.59776" lon="7.01377">
        <ele>187.39999389648</ele>
        <time>2011-01-14T12:04:49.000Z</time>
      </trkpt>
      <trkpt lat="43.59794" lon="7.01399">
        <ele>187.60000610352</ele>
        <time>2011-01-14T12:04:55.000Z</time>
      </trkpt>
      <trkpt lat="43.59819" lon="7.01427">
        <ele>187</ele>
        <time>2011-01-14T12:05:03.000Z</time>
      </trkpt>
      <trkpt lat="43.59841" lon="7.01455">
        <ele>187</ele>
        <time>2011-01-14T12:05:10.000Z</time>
      </trkpt>
      <trkpt lat="43.59864" lon="7.0149">
        <ele>187.39999389648</ele>
        <time>2011-01-14T12:05:17.000Z</time>
      </trkpt>
      <trkpt lat="43.5989" lon="7.01535">
        <ele>187</ele>
        <time>2011-01-14T12:05:26.000Z</time>
      </trkpt>
      <trkpt lat="43.59896" lon="7.01545">
        <ele>186.80000305176</ele>
        <time>2011-01-14T12:05:28.000Z</time>
      </trkpt>
      <trkpt lat="43.59896" lon="7.0156">
        <ele>187.19999694824</ele>
        <time>2011-01-14T12:05:32.000Z</time>
      </trkpt>
      <trkpt lat="43.59887" lon="7.01565">
        <ele>188.19999694824</ele>
        <time>2011-01-14T12:05:36.000Z</time>
      </trkpt>
      <trkpt lat="43.5987" lon="7.01579">
        <ele>190.19999694824</ele>
        <time>2011-01-14T12:05:45.000Z</time>
      </trkpt>
      <trkpt lat="43.59857" lon="7.01594">
        <ele>192.39999389648</ele>
        <time>2011-01-14T12:05:52.000Z</time>
      </trkpt>
      <trkpt lat="43.59848" lon="7.01605">
        <ele>194</ele>
        <time>2011-01-14T12:05:58.000Z</time>
      </trkpt>
      <trkpt lat="43.59838" lon="7.01617">
        <ele>195.80000305176</ele>
        <time>2011-01-14T12:06:04.000Z</time>
      </trkpt>
      <trkpt lat="43.59835" lon="7.01621">
        <ele>196.39999389648</ele>
        <time>2011-01-14T12:06:06.000Z</time>
      </trkpt>
      <trkpt lat="43.59821" lon="7.01636">
        <ele>199.60000610352</ele>
        <time>2011-01-14T12:06:15.000Z</time>
      </trkpt>
      <trkpt lat="43.59813" lon="7.01652">
        <ele>201.60000610352</ele>
        <time>2011-01-14T12:06:22.000Z</time>
      </trkpt>
      <trkpt lat="43.5981" lon="7.01655">
        <ele>202</ele>
        <time>2011-01-14T12:06:24.000Z</time>
      </trkpt>
      <trkpt lat="43.59801" lon="7.01665">
        <ele>203.60000610352</ele>
        <time>2011-01-14T12:06:30.000Z</time>
      </trkpt>
      <trkpt lat="43.59791" lon="7.01676">
        <ele>204.39999389648</ele>
        <time>2011-01-14T12:06:37.000Z</time>
      </trkpt>
      <trkpt lat="43.59784" lon="7.01678">
        <ele>205</ele>
        <time>2011-01-14T12:06:42.000Z</time>
      </trkpt>
      <trkpt lat="43.59777" lon="7.01687">
        <ele>205.19999694824</ele>
        <time>2011-01-14T12:06:48.000Z</time>
      </trkpt>
      <trkpt lat="43.59771" lon="7.01703">
        <ele>204.60000610352</ele>
        <time>2011-01-14T12:06:55.000Z</time>
      </trkpt>
      <trkpt lat="43.59771" lon="7.01704">
        <ele>204.39999389648</ele>
        <time>2011-01-14T12:06:56.000Z</time>
      </trkpt>
      <trkpt lat="43.59769" lon="7.01707">
        <ele>204.39999389648</ele>
        <time>2011-01-14T12:07:07.000Z</time>
      </trkpt>
      <trkpt lat="43.59767" lon="7.01709">
        <ele>204.39999389648</ele>
        <time>2011-01-14T12:07:11.000Z</time>
      </trkpt>
      <trkpt lat="43.59761" lon="7.01723">
        <ele>203.80000305176</ele>
        <time>2011-01-14T12:07:17.000Z</time>
      </trkpt>
      <trkpt lat="43.59761" lon="7.01725">
        <ele>203.60000610352</ele>
        <time>2011-01-14T12:07:18.000Z</time>
      </trkpt>
      <trkpt lat="43.59759" lon="7.01745">
        <ele>201.80000305176</ele>
        <time>2011-01-14T12:07:23.000Z</time>
      </trkpt>
      <trkpt lat="43.59763" lon="7.01777">
        <ele>201</ele>
        <time>2011-01-14T12:07:28.000Z</time>
      </trkpt>
      <trkpt lat="43.59762" lon="7.01791">
        <ele>201</ele>
        <time>2011-01-14T12:07:30.000Z</time>
      </trkpt>
      <trkpt lat="43.59762" lon="7.01801">
        <ele>201</ele>
        <time>2011-01-14T12:07:32.000Z</time>
      </trkpt>
      <trkpt lat="43.59756" lon="7.01818">
        <ele>201</ele>
        <time>2011-01-14T12:07:36.000Z</time>
      </trkpt>
      <trkpt lat="43.59746" lon="7.01832">
        <ele>201.19999694824</ele>
        <time>2011-01-14T12:07:41.000Z</time>
      </trkpt>
      <trkpt lat="43.59734" lon="7.01848">
        <ele>202.80000305176</ele>
        <time>2011-01-14T12:07:48.000Z</time>
      </trkpt>
      <trkpt lat="43.5972" lon="7.01861">
        <ele>204.39999389648</ele>
        <time>2011-01-14T12:07:54.000Z</time>
      </trkpt>
      <trkpt lat="43.59709" lon="7.01878">
        <ele>205.60000610352</ele>
        <time>2011-01-14T12:08:00.000Z</time>
      </trkpt>
      <trkpt lat="43.59704" lon="7.01893">
        <ele>206.19999694824</ele>
        <time>2011-01-14T12:08:05.000Z</time>
      </trkpt>
      <trkpt lat="43.597" lon="7.01914">
        <ele>206.80000305176</ele>
        <time>2011-01-14T12:08:13.000Z</time>
      </trkpt>
      <trkpt lat="43.59692" lon="7.01932">
        <ele>206.80000305176</ele>
        <time>2011-01-14T12:08:20.000Z</time>
      </trkpt>
      <trkpt lat="43.5968" lon="7.01952">
        <ele>206.60000610352</ele>
        <time>2011-01-14T12:08:27.000Z</time>
      </trkpt>
      <trkpt lat="43.59669" lon="7.01964">
        <ele>206.60000610352</ele>
        <time>2011-01-14T12:08:32.000Z</time>
      </trkpt>
      <trkpt lat="43.59651" lon="7.01982">
        <ele>207</ele>
        <time>2011-01-14T12:08:39.000Z</time>
      </trkpt>
      <trkpt lat="43.59637" lon="7.01997">
        <ele>206.80000305176</ele>
        <time>2011-01-14T12:08:45.000Z</time>
      </trkpt>
      <trkpt lat="43.59624" lon="7.02011">
        <ele>207.60000610352</ele>
        <time>2011-01-14T12:08:51.000Z</time>
      </trkpt>
      <trkpt lat="43.59612" lon="7.02023">
        <ele>208.39999389648</ele>
        <time>2011-01-14T12:08:56.000Z</time>
      </trkpt>
      <trkpt lat="43.59591" lon="7.02035">
        <ele>209.60000610352</ele>
        <time>2011-01-14T12:09:03.000Z</time>
      </trkpt>
      <trkpt lat="43.59579" lon="7.02038">
        <ele>210.19999694824</ele>
        <time>2011-01-14T12:09:08.000Z</time>
      </trkpt>
      <trkpt lat="43.59566" lon="7.02046">
        <ele>211.19999694824</ele>
        <time>2011-01-14T12:09:13.000Z</time>
      </trkpt>
      <trkpt lat="43.59549" lon="7.02055">
        <ele>212.19999694824</ele>
        <time>2011-01-14T12:09:19.000Z</time>
      </trkpt>
      <trkpt lat="43.59533" lon="7.02064">
        <ele>213.19999694824</ele>
        <time>2011-01-14T12:09:25.000Z</time>
      </trkpt>
      <trkpt lat="43.59521" lon="7.02074">
        <ele>213.80000305176</ele>
        <time>2011-01-14T12:09:30.000Z</time>
      </trkpt>
      <trkpt lat="43.59508" lon="7.02078">
        <ele>214.60000610352</ele>
        <time>2011-01-14T12:09:35.000Z</time>
      </trkpt>
      <trkpt lat="43.59489" lon="7.02086">
        <ele>215.80000305176</ele>
        <time>2011-01-14T12:09:43.000Z</time>
      </trkpt>
      <trkpt lat="43.59487" lon="7.02088">
        <ele>216</ele>
        <time>2011-01-14T12:09:44.000Z</time>
      </trkpt>
      <trkpt lat="43.59484" lon="7.02099">
        <ele>216.19999694824</ele>
        <time>2011-01-14T12:09:49.000Z</time>
      </trkpt>
      <trkpt lat="43.59484" lon="7.02106">
        <ele>216.39999389648</ele>
        <time>2011-01-14T12:09:51.000Z</time>
      </trkpt>
      <trkpt lat="43.59489" lon="7.02133">
        <ele>216.39999389648</ele>
        <time>2011-01-14T12:09:58.000Z</time>
      </trkpt>
      <trkpt lat="43.59499" lon="7.02153">
        <ele>216.60000610352</ele>
        <time>2011-01-14T12:10:04.000Z</time>
      </trkpt>
      <trkpt lat="43.59506" lon="7.02172">
        <ele>217.19999694824</ele>
        <time>2011-01-14T12:10:09.000Z</time>
      </trkpt>
      <trkpt lat="43.5951" lon="7.02178">
        <ele>217.39999389648</ele>
        <time>2011-01-14T12:10:11.000Z</time>
      </trkpt>
      <trkpt lat="43.59527" lon="7.02178">
        <ele>217.60000610352</ele>
        <time>2011-01-14T12:10:17.000Z</time>
      </trkpt>
      <trkpt lat="43.59542" lon="7.02179">
        <ele>217.80000305176</ele>
        <time>2011-01-14T12:10:22.000Z</time>
      </trkpt>
      <trkpt lat="43.59547" lon="7.0219">
        <ele>218.39999389648</ele>
        <time>2011-01-14T12:10:26.000Z</time>
      </trkpt>
      <trkpt lat="43.59547" lon="7.02205">
        <ele>218.80000305176</ele>
        <time>2011-01-14T12:10:30.000Z</time>
      </trkpt>
      <trkpt lat="43.59544" lon="7.02224">
        <ele>219.39999389648</ele>
        <time>2011-01-14T12:10:37.000Z</time>
      </trkpt>
      <trkpt lat="43.5955" lon="7.02233">
        <ele>220</ele>
        <time>2011-01-14T12:10:42.000Z</time>
      </trkpt>
      <trkpt lat="43.59551" lon="7.02235">
        <ele>220</ele>
        <time>2011-01-14T12:10:43.000Z</time>
      </trkpt>
      <trkpt lat="43.59555" lon="7.02238">
        <ele>220.19999694824</ele>
        <time>2011-01-14T12:10:47.000Z</time>
      </trkpt>
      <trkpt lat="43.59561" lon="7.02238">
        <ele>220.19999694824</ele>
        <time>2011-01-14T12:10:52.000Z</time>
      </trkpt>
      <trkpt lat="43.59573" lon="7.02244">
        <ele>220.60000610352</ele>
        <time>2011-01-14T12:10:57.000Z</time>
      </trkpt>
      <trkpt lat="43.59588" lon="7.02252">
        <ele>220.80000305176</ele>
        <time>2011-01-14T12:11:02.000Z</time>
      </trkpt>
      <trkpt lat="43.59597" lon="7.02256">
        <ele>221</ele>
        <time>2011-01-14T12:11:06.000Z</time>
      </trkpt>
      <trkpt lat="43.59617" lon="7.02261">
        <ele>221.19999694824</ele>
        <time>2011-01-14T12:11:13.000Z</time>
      </trkpt>
      <trkpt lat="43.59623" lon="7.02264">
        <ele>221.19999694824</ele>
        <time>2011-01-14T12:11:16.000Z</time>
      </trkpt>
      <trkpt lat="43.59638" lon="7.02272">
        <ele>221.39999389648</ele>
        <time>2011-01-14T12:11:22.000Z</time>
      </trkpt>
      <trkpt lat="43.5964" lon="7.02274">
        <ele>221.39999389648</ele>
        <time>2011-01-14T12:11:23.000Z</time>
      </trkpt>
      <trkpt lat="43.59655" lon="7.02279">
        <ele>221.80000305176</ele>
        <time>2011-01-14T12:11:28.000Z</time>
      </trkpt>
      <trkpt lat="43.59678" lon="7.02269">
        <ele>223.19999694824</ele>
        <time>2011-01-14T12:11:35.000Z</time>
      </trkpt>
      <trkpt lat="43.59696" lon="7.02265">
        <ele>224.19999694824</ele>
        <time>2011-01-14T12:11:41.000Z</time>
      </trkpt>
      <trkpt lat="43.59707" lon="7.02264">
        <ele>224.80000305176</ele>
        <time>2011-01-14T12:11:45.000Z</time>
      </trkpt>
      <trkpt lat="43.59719" lon="7.02269">
        <ele>225.60000610352</ele>
        <time>2011-01-14T12:11:50.000Z</time>
      </trkpt>
      <trkpt lat="43.59734" lon="7.02275">
        <ele>226.80000305176</ele>
        <time>2011-01-14T12:11:56.000Z</time>
      </trkpt>
      <trkpt lat="43.59746" lon="7.02279">
        <ele>227.60000610352</ele>
        <time>2011-01-14T12:12:01.000Z</time>
      </trkpt>
      <trkpt lat="43.59759" lon="7.02282">
        <ele>228.39999389648</ele>
        <time>2011-01-14T12:12:07.000Z</time>
      </trkpt>
      <trkpt lat="43.59773" lon="7.02286">
        <ele>229</ele>
        <time>2011-01-14T12:12:13.000Z</time>
      </trkpt>
      <trkpt lat="43.59788" lon="7.02285">
        <ele>229.39999389648</ele>
        <time>2011-01-14T12:12:20.000Z</time>
      </trkpt>
      <trkpt lat="43.59789" lon="7.02287">
        <ele>229.39999389648</ele>
        <time>2011-01-14T12:12:21.000Z</time>
      </trkpt>
      <trkpt lat="43.59811" lon="7.02296">
        <ele>230.19999694824</ele>
        <time>2011-01-14T12:12:28.000Z</time>
      </trkpt>
      <trkpt lat="43.59831" lon="7.02302">
        <ele>230.80000305176</ele>
        <time>2011-01-14T12:12:34.000Z</time>
      </trkpt>
      <trkpt lat="43.59852" lon="7.02303">
        <ele>230</ele>
        <time>2011-01-14T12:12:39.000Z</time>
      </trkpt>
      <trkpt lat="43.59872" lon="7.02302">
        <ele>229.19999694824</ele>
        <time>2011-01-14T12:12:44.000Z</time>
      </trkpt>
      <trkpt lat="43.59877" lon="7.02301">
        <ele>229</ele>
        <time>2011-01-14T12:12:45.000Z</time>
      </trkpt>
      <trkpt lat="43.59892" lon="7.023">
        <ele>228.60000610352</ele>
        <time>2011-01-14T12:12:48.000Z</time>
      </trkpt>
      <trkpt lat="43.59916" lon="7.02301">
        <ele>227.39999389648</ele>
        <time>2011-01-14T12:12:54.000Z</time>
      </trkpt>
      <trkpt lat="43.59922" lon="7.02303">
        <ele>227.19999694824</ele>
        <time>2011-01-14T12:12:56.000Z</time>
      </trkpt>
      <trkpt lat="43.59939" lon="7.02304">
        <ele>227.19999694824</ele>
        <time>2011-01-14T12:13:02.000Z</time>
      </trkpt>
      <trkpt lat="43.59951" lon="7.02308">
        <ele>227</ele>
        <time>2011-01-14T12:13:06.000Z</time>
      </trkpt>
      <trkpt lat="43.5996" lon="7.02311">
        <ele>226.80000305176</ele>
        <time>2011-01-14T12:13:08.000Z</time>
      </trkpt>
      <trkpt lat="43.59972" lon="7.02313">
        <ele>226.80000305176</ele>
        <time>2011-01-14T12:13:10.000Z</time>
      </trkpt>
      <trkpt lat="43.59989" lon="7.02307">
        <ele>227.39999389648</ele>
        <time>2011-01-14T12:13:14.000Z</time>
      </trkpt>
      <trkpt lat="43.6" lon="7.0229">
        <ele>228.39999389648</ele>
        <time>2011-01-14T12:13:18.000Z</time>
      </trkpt>
      <trkpt lat="43.60006" lon="7.02289">
        <ele>228.39999389648</ele>
        <time>2011-01-14T12:13:20.000Z</time>
      </trkpt>
      <trkpt lat="43.60028" lon="7.0229">
        <ele>227.60000610352</ele>
        <time>2011-01-14T12:13:25.000Z</time>
      </trkpt>
      <trkpt lat="43.60046" lon="7.02295">
        <ele>227</ele>
        <time>2011-01-14T12:13:30.000Z</time>
      </trkpt>
      <trkpt lat="43.60064" lon="7.02312">
        <ele>226.60000610352</ele>
        <time>2011-01-14T12:13:37.000Z</time>
      </trkpt>
      <trkpt lat="43.60074" lon="7.02329">
        <ele>226.80000305176</ele>
        <time>2011-01-14T12:13:43.000Z</time>
      </trkpt>
      <trkpt lat="43.60081" lon="7.02348">
        <ele>226.39999389648</ele>
        <time>2011-01-14T12:13:48.000Z</time>
      </trkpt>
      <trkpt lat="43.60094" lon="7.02361">
        <ele>223.80000305176</ele>
        <time>2011-01-14T12:13:52.000Z</time>
      </trkpt>
      <trkpt lat="43.60103" lon="7.02378">
        <ele>221.60000610352</ele>
        <time>2011-01-14T12:13:55.000Z</time>
      </trkpt>
      <trkpt lat="43.60104" lon="7.02416">
        <ele>220.60000610352</ele>
        <time>2011-01-14T12:13:59.000Z</time>
      </trkpt>
      <trkpt lat="43.60105" lon="7.02426">
        <ele>219.39999389648</ele>
        <time>2011-01-14T12:14:00.000Z</time>
      </trkpt>
      <trkpt lat="43.60102" lon="7.02475">
        <ele>213.60000610352</ele>
        <time>2011-01-14T12:14:05.000Z</time>
      </trkpt>
      <trkpt lat="43.60098" lon="7.02493">
        <ele>211.80000305176</ele>
        <time>2011-01-14T12:14:08.000Z</time>
      </trkpt>
      <trkpt lat="43.60094" lon="7.02504">
        <ele>210.39999389648</ele>
        <time>2011-01-14T12:14:10.000Z</time>
      </trkpt>
      <trkpt lat="43.60093" lon="7.02533">
        <ele>205.19999694824</ele>
        <time>2011-01-14T12:14:14.000Z</time>
      </trkpt>
      <trkpt lat="43.601" lon="7.02563">
        <ele>199.39999389648</ele>
        <time>2011-01-14T12:14:18.000Z</time>
      </trkpt>
      <trkpt lat="43.60093" lon="7.02577">
        <ele>197.39999389648</ele>
        <time>2011-01-14T12:14:22.000Z</time>
      </trkpt>
      <trkpt lat="43.60091" lon="7.0258">
        <ele>196.80000305176</ele>
        <time>2011-01-14T12:14:23.000Z</time>
      </trkpt>
      <trkpt lat="43.6009" lon="7.02586">
        <ele>196</ele>
        <time>2011-01-14T12:14:25.000Z</time>
      </trkpt>
      <trkpt lat="43.60092" lon="7.02587">
        <ele>195.60000610352</ele>
        <time>2011-01-14T12:14:27.000Z</time>
      </trkpt>
      <trkpt lat="43.60095" lon="7.02584">
        <ele>196</ele>
        <time>2011-01-14T12:14:32.000Z</time>
      </trkpt>
      <trkpt lat="43.60093" lon="7.02588">
        <ele>195.60000610352</ele>
        <time>2011-01-14T12:14:47.000Z</time>
      </trkpt>
      <trkpt lat="43.60093" lon="7.02585">
        <ele>196</ele>
        <time>2011-01-14T12:15:12.000Z</time>
      </trkpt>
      <trkpt lat="43.60092" lon="7.02587">
        <ele>195.60000610352</ele>
        <time>2011-01-14T12:15:28.000Z</time>
      </trkpt>
      <trkpt lat="43.60091" lon="7.02589">
        <ele>195.39999389648</ele>
        <time>2011-01-14T12:15:31.000Z</time>
      </trkpt>
      <trkpt lat="43.60079" lon="7.02601">
        <ele>194.19999694824</ele>
        <time>2011-01-14T12:15:35.000Z</time>
      </trkpt>
      <trkpt lat="43.60068" lon="7.02619">
        <ele>191</ele>
        <time>2011-01-14T12:15:39.000Z</time>
      </trkpt>
      <trkpt lat="43.60063" lon="7.02632">
        <ele>189.19999694824</ele>
        <time>2011-01-14T12:15:41.000Z</time>
      </trkpt>
      <trkpt lat="43.60055" lon="7.02649">
        <ele>186.80000305176</ele>
        <time>2011-01-14T12:15:45.000Z</time>
      </trkpt>
      <trkpt lat="43.60052" lon="7.02651">
        <ele>186.39999389648</ele>
        <time>2011-01-14T12:15:46.000Z</time>
      </trkpt>
      <trkpt lat="43.6003" lon="7.02661">
        <ele>185</ele>
        <time>2011-01-14T12:15:52.000Z</time>
      </trkpt>
      <trkpt lat="43.60023" lon="7.02665">
        <ele>184.39999389648</ele>
        <time>2011-01-14T12:15:54.000Z</time>
      </trkpt>
      <trkpt lat="43.60021" lon="7.02684">
        <ele>182.80000305176</ele>
        <time>2011-01-14T12:15:58.000Z</time>
      </trkpt>
      <trkpt lat="43.60023" lon="7.02697">
        <ele>181.80000305176</ele>
        <time>2011-01-14T12:16:02.000Z</time>
      </trkpt>
      <trkpt lat="43.60026" lon="7.02698">
        <ele>181.60000610352</ele>
        <time>2011-01-14T12:16:22.000Z</time>
      </trkpt>
      <trkpt lat="43.60027" lon="7.02686">
        <ele>182.60000610352</ele>
        <time>2011-01-14T12:16:46.000Z</time>
      </trkpt>
      <trkpt lat="43.60025" lon="7.0269">
        <ele>182.39999389648</ele>
        <time>2011-01-14T12:16:57.000Z</time>
      </trkpt>
      <trkpt lat="43.60025" lon="7.02699">
        <ele>181.60000610352</ele>
        <time>2011-01-14T12:17:06.000Z</time>
      </trkpt>
      <trkpt lat="43.60027" lon="7.02716">
        <ele>180.19999694824</ele>
        <time>2011-01-14T12:17:11.000Z</time>
      </trkpt>
      <trkpt lat="43.60033" lon="7.02737">
        <ele>178</ele>
        <time>2011-01-14T12:17:15.000Z</time>
      </trkpt>
      <trkpt lat="43.60042" lon="7.02756">
        <ele>176</ele>
        <time>2011-01-14T12:17:18.000Z</time>
      </trkpt>
      <trkpt lat="43.60063" lon="7.02784">
        <ele>173.19999694824</ele>
        <time>2011-01-14T12:17:22.000Z</time>
      </trkpt>
      <trkpt lat="43.60066" lon="7.02792">
        <ele>172.60000610352</ele>
        <time>2011-01-14T12:17:23.000Z</time>
      </trkpt>
      <trkpt lat="43.60073" lon="7.02807">
        <ele>171.60000610352</ele>
        <time>2011-01-14T12:17:25.000Z</time>
      </trkpt>
      <trkpt lat="43.60079" lon="7.0282">
        <ele>170.60000610352</ele>
        <time>2011-01-14T12:17:27.000Z</time>
      </trkpt>
      <trkpt lat="43.60095" lon="7.02832">
        <ele>170</ele>
        <time>2011-01-14T12:17:31.000Z</time>
      </trkpt>
      <trkpt lat="43.60106" lon="7.02844">
        <ele>170.39999389648</ele>
        <time>2011-01-14T12:17:35.000Z</time>
      </trkpt>
      <trkpt lat="43.60116" lon="7.02847">
        <ele>170.80000305176</ele>
        <time>2011-01-14T12:17:40.000Z</time>
      </trkpt>
      <trkpt lat="43.60118" lon="7.02846">
        <ele>170.80000305176</ele>
        <time>2011-01-14T12:17:42.000Z</time>
      </trkpt>
      <trkpt lat="43.60121" lon="7.02844">
        <ele>170.60000610352</ele>
        <time>2011-01-14T12:17:45.000Z</time>
      </trkpt>
      <trkpt lat="43.60124" lon="7.02845">
        <ele>170.80000305176</ele>
        <time>2011-01-14T12:17:49.000Z</time>
      </trkpt>
      <trkpt lat="43.60129" lon="7.02857">
        <ele>171.80000305176</ele>
        <time>2011-01-14T12:17:53.000Z</time>
      </trkpt>
      <trkpt lat="43.60127" lon="7.02879">
        <ele>173.19999694824</ele>
        <time>2011-01-14T12:17:58.000Z</time>
      </trkpt>
      <trkpt lat="43.60132" lon="7.02888">
        <ele>174.19999694824</ele>
        <time>2011-01-14T12:18:02.000Z</time>
      </trkpt>
      <trkpt lat="43.60133" lon="7.02887">
        <ele>174.19999694824</ele>
        <time>2011-01-14T12:18:03.000Z</time>
      </trkpt>
      <trkpt lat="43.60142" lon="7.02879">
        <ele>174</ele>
        <time>2011-01-14T12:18:09.000Z</time>
      </trkpt>
      <trkpt lat="43.60158" lon="7.02873">
        <ele>174.19999694824</ele>
        <time>2011-01-14T12:18:14.000Z</time>
      </trkpt>
      <trkpt lat="43.60182" lon="7.02856">
        <ele>173.60000610352</ele>
        <time>2011-01-14T12:18:20.000Z</time>
      </trkpt>
      <trkpt lat="43.60187" lon="7.02854">
        <ele>173.60000610352</ele>
        <time>2011-01-14T12:18:21.000Z</time>
      </trkpt>
      <trkpt lat="43.60214" lon="7.02843">
        <ele>173.39999389648</ele>
        <time>2011-01-14T12:18:27.000Z</time>
      </trkpt>
      <trkpt lat="43.60239" lon="7.02833">
        <ele>172.60000610352</ele>
        <time>2011-01-14T12:18:33.000Z</time>
      </trkpt>
      <trkpt lat="43.60271" lon="7.02816">
        <ele>171</ele>
        <time>2011-01-14T12:18:40.000Z</time>
      </trkpt>
      <trkpt lat="43.60283" lon="7.02808">
        <ele>170</ele>
        <time>2011-01-14T12:18:42.000Z</time>
      </trkpt>
      <trkpt lat="43.60318" lon="7.02797">
        <ele>168</ele>
        <time>2011-01-14T12:18:48.000Z</time>
      </trkpt>
      <trkpt lat="43.60334" lon="7.02799">
        <ele>168</ele>
        <time>2011-01-14T12:18:51.000Z</time>
      </trkpt>
      <trkpt lat="43.60365" lon="7.02805">
        <ele>167.60000610352</ele>
        <time>2011-01-14T12:18:57.000Z</time>
      </trkpt>
      <trkpt lat="43.60394" lon="7.02812">
        <ele>167.19999694824</ele>
        <time>2011-01-14T12:19:03.000Z</time>
      </trkpt>
      <trkpt lat="43.60399" lon="7.02814">
        <ele>167</ele>
        <time>2011-01-14T12:19:04.000Z</time>
      </trkpt>
      <trkpt lat="43.6042" lon="7.02819">
        <ele>166.39999389648</ele>
        <time>2011-01-14T12:19:08.000Z</time>
      </trkpt>
      <trkpt lat="43.60452" lon="7.02832">
        <ele>164.39999389648</ele>
        <time>2011-01-14T12:19:15.000Z</time>
      </trkpt>
      <trkpt lat="43.60456" lon="7.02834">
        <ele>164.19999694824</ele>
        <time>2011-01-14T12:19:16.000Z</time>
      </trkpt>
      <trkpt lat="43.60476" lon="7.02844">
        <ele>163.39999389648</ele>
        <time>2011-01-14T12:19:21.000Z</time>
      </trkpt>
      <trkpt lat="43.60488" lon="7.02856">
        <ele>163.19999694824</ele>
        <time>2011-01-14T12:19:25.000Z</time>
      </trkpt>
      <trkpt lat="43.60507" lon="7.02887">
        <ele>164.39999389648</ele>
        <time>2011-01-14T12:19:34.000Z</time>
      </trkpt>
      <trkpt lat="43.60515" lon="7.02903">
        <ele>165</ele>
        <time>2011-01-14T12:19:39.000Z</time>
      </trkpt>
      <trkpt lat="43.60525" lon="7.02926">
        <ele>166.60000610352</ele>
        <time>2011-01-14T12:19:46.000Z</time>
      </trkpt>
      <trkpt lat="43.60532" lon="7.02949">
        <ele>169.80000305176</ele>
        <time>2011-01-14T12:19:53.000Z</time>
      </trkpt>
      <trkpt lat="43.60539" lon="7.0297">
        <ele>172.19999694824</ele>
        <time>2011-01-14T12:20:00.000Z</time>
      </trkpt>
      <trkpt lat="43.60548" lon="7.02992">
        <ele>174.39999389648</ele>
        <time>2011-01-14T12:20:08.000Z</time>
      </trkpt>
      <trkpt lat="43.60555" lon="7.03007">
        <ele>176</ele>
        <time>2011-01-14T12:20:13.000Z</time>
      </trkpt>
      <trkpt lat="43.60562" lon="7.03021">
        <ele>178.19999694824</ele>
        <time>2011-01-14T12:20:18.000Z</time>
      </trkpt>
      <trkpt lat="43.60573" lon="7.03036">
        <ele>179.80000305176</ele>
        <time>2011-01-14T12:20:24.000Z</time>
      </trkpt>
      <trkpt lat="43.60585" lon="7.03053">
        <ele>182</ele>
        <time>2011-01-14T12:20:31.000Z</time>
      </trkpt>
      <trkpt lat="43.60589" lon="7.03061">
        <ele>182.60000610352</ele>
        <time>2011-01-14T12:20:34.000Z</time>
      </trkpt>
      <trkpt lat="43.60597" lon="7.03069">
        <ele>182.19999694824</ele>
        <time>2011-01-14T12:20:38.000Z</time>
      </trkpt>
      <trkpt lat="43.60609" lon="7.03087">
        <ele>182</ele>
        <time>2011-01-14T12:20:45.000Z</time>
      </trkpt>
      <trkpt lat="43.60619" lon="7.03105">
        <ele>182</ele>
        <time>2011-01-14T12:20:51.000Z</time>
      </trkpt>
      <trkpt lat="43.60629" lon="7.03127">
        <ele>182.19999694824</ele>
        <time>2011-01-14T12:20:59.000Z</time>
      </trkpt>
      <trkpt lat="43.60637" lon="7.03142">
        <ele>182</ele>
        <time>2011-01-14T12:21:04.000Z</time>
      </trkpt>
      <trkpt lat="43.60646" lon="7.0316">
        <ele>182.19999694824</ele>
        <time>2011-01-14T12:21:09.000Z</time>
      </trkpt>
      <trkpt lat="43.60657" lon="7.03175">
        <ele>180.60000610352</ele>
        <time>2011-01-14T12:21:13.000Z</time>
      </trkpt>
      <trkpt lat="43.60667" lon="7.03191">
        <ele>178.80000305176</ele>
        <time>2011-01-14T12:21:16.000Z</time>
      </trkpt>
      <trkpt lat="43.60678" lon="7.03222">
        <ele>178</ele>
        <time>2011-01-14T12:21:20.000Z</time>
      </trkpt>
      <trkpt lat="43.60682" lon="7.03238">
        <ele>178</ele>
        <time>2011-01-14T12:21:22.000Z</time>
      </trkpt>
      <trkpt lat="43.60702" lon="7.03267">
        <ele>173.60000610352</ele>
        <time>2011-01-14T12:21:26.000Z</time>
      </trkpt>
      <trkpt lat="43.60713" lon="7.03286">
        <ele>171.80000305176</ele>
        <time>2011-01-14T12:21:29.000Z</time>
      </trkpt>
      <trkpt lat="43.60705" lon="7.03302">
        <ele>174.80000305176</ele>
        <time>2011-01-14T12:21:33.000Z</time>
      </trkpt>
      <trkpt lat="43.60697" lon="7.03309">
        <ele>177</ele>
        <time>2011-01-14T12:21:35.000Z</time>
      </trkpt>
      <trkpt lat="43.60696" lon="7.03318">
        <ele>177.60000610352</ele>
        <time>2011-01-14T12:21:39.000Z</time>
      </trkpt>
      <trkpt lat="43.60698" lon="7.03318">
        <ele>177.19999694824</ele>
        <time>2011-01-14T12:21:40.000Z</time>
      </trkpt>
      <trkpt lat="43.60713" lon="7.03322">
        <ele>174.39999389648</ele>
        <time>2011-01-14T12:21:45.000Z</time>
      </trkpt>
      <trkpt lat="43.60734" lon="7.03334">
        <ele>171</ele>
        <time>2011-01-14T12:21:49.000Z</time>
      </trkpt>
      <trkpt lat="43.60764" lon="7.03356">
        <ele>165</ele>
        <time>2011-01-14T12:21:55.000Z</time>
      </trkpt>
      <trkpt lat="43.6077" lon="7.03365">
        <ele>163.80000305176</ele>
        <time>2011-01-14T12:21:57.000Z</time>
      </trkpt>
      <trkpt lat="43.60764" lon="7.03378">
        <ele>164.80000305176</ele>
        <time>2011-01-14T12:22:01.000Z</time>
      </trkpt>
      <trkpt lat="43.6076" lon="7.03386">
        <ele>165.39999389648</ele>
        <time>2011-01-14T12:22:05.000Z</time>
      </trkpt>
      <trkpt lat="43.60755" lon="7.03392">
        <ele>166.39999389648</ele>
        <time>2011-01-14T12:22:12.000Z</time>
      </trkpt>
      <trkpt lat="43.60748" lon="7.03397">
        <ele>167.39999389648</ele>
        <time>2011-01-14T12:22:22.000Z</time>
      </trkpt>
      <trkpt lat="43.6074" lon="7.03405">
        <ele>168.80000305176</ele>
        <time>2011-01-14T12:22:27.000Z</time>
      </trkpt>
      <trkpt lat="43.60727" lon="7.0342">
        <ele>171</ele>
        <time>2011-01-14T12:22:32.000Z</time>
      </trkpt>
      <trkpt lat="43.60711" lon="7.03441">
        <ele>173.19999694824</ele>
        <time>2011-01-14T12:22:36.000Z</time>
      </trkpt>
      <trkpt lat="43.60688" lon="7.03477">
        <ele>175.19999694824</ele>
        <time>2011-01-14T12:22:41.000Z</time>
      </trkpt>
      <trkpt lat="43.60686" lon="7.03482">
        <ele>175.39999389648</ele>
        <time>2011-01-14T12:22:43.000Z</time>
      </trkpt>
      <trkpt lat="43.60687" lon="7.03502">
        <ele>174.60000610352</ele>
        <time>2011-01-14T12:22:48.000Z</time>
      </trkpt>
      <trkpt lat="43.607" lon="7.03514">
        <ele>173.60000610352</ele>
        <time>2011-01-14T12:22:53.000Z</time>
      </trkpt>
      <trkpt lat="43.60703" lon="7.03516">
        <ele>173.39999389648</ele>
        <time>2011-01-14T12:22:54.000Z</time>
      </trkpt>
      <trkpt lat="43.60721" lon="7.03517">
        <ele>171.19999694824</ele>
        <time>2011-01-14T12:22:59.000Z</time>
      </trkpt>
      <trkpt lat="43.60736" lon="7.03525">
        <ele>169.80000305176</ele>
        <time>2011-01-14T12:23:04.000Z</time>
      </trkpt>
      <trkpt lat="43.60747" lon="7.03537">
        <ele>169</ele>
        <time>2011-01-14T12:23:09.000Z</time>
      </trkpt>
      <trkpt lat="43.60752" lon="7.0355">
        <ele>169</ele>
        <time>2011-01-14T12:23:13.000Z</time>
      </trkpt>
      <trkpt lat="43.60752" lon="7.03561">
        <ele>169.60000610352</ele>
        <time>2011-01-14T12:23:18.000Z</time>
      </trkpt>
      <trkpt lat="43.60753" lon="7.03562">
        <ele>169.39999389648</ele>
        <time>2011-01-14T12:23:35.000Z</time>
      </trkpt>
      <trkpt lat="43.60756" lon="7.0357">
        <ele>169.60000610352</ele>
        <time>2011-01-14T12:23:50.000Z</time>
      </trkpt>
      <trkpt lat="43.60753" lon="7.03584">
        <ele>170.60000610352</ele>
        <time>2011-01-14T12:23:55.000Z</time>
      </trkpt>
      <trkpt lat="43.60752" lon="7.0359">
        <ele>171</ele>
        <time>2011-01-14T12:23:57.000Z</time>
      </trkpt>
      <trkpt lat="43.60761" lon="7.03608">
        <ele>170.60000610352</ele>
        <time>2011-01-14T12:24:02.000Z</time>
      </trkpt>
      <trkpt lat="43.60774" lon="7.03639">
        <ele>170.19999694824</ele>
        <time>2011-01-14T12:24:09.000Z</time>
      </trkpt>
      <trkpt lat="43.60789" lon="7.03655">
        <ele>168.80000305176</ele>
        <time>2011-01-14T12:24:13.000Z</time>
      </trkpt>
      <trkpt lat="43.60811" lon="7.03681">
        <ele>168</ele>
        <time>2011-01-14T12:24:18.000Z</time>
      </trkpt>
      <trkpt lat="43.60818" lon="7.03706">
        <ele>169.80000305176</ele>
        <time>2011-01-14T12:24:22.000Z</time>
      </trkpt>
      <trkpt lat="43.60837" lon="7.03713">
        <ele>168.80000305176</ele>
        <time>2011-01-14T12:24:26.000Z</time>
      </trkpt>
      <trkpt lat="43.60856" lon="7.03718">
        <ele>167.80000305176</ele>
        <time>2011-01-14T12:24:32.000Z</time>
      </trkpt>
      <trkpt lat="43.60867" lon="7.03726">
        <ele>168</ele>
        <time>2011-01-14T12:24:37.000Z</time>
      </trkpt>
      <trkpt lat="43.6088" lon="7.03736">
        <ele>168.39999389648</ele>
        <time>2011-01-14T12:24:43.000Z</time>
      </trkpt>
      <trkpt lat="43.60891" lon="7.03739">
        <ele>168</ele>
        <time>2011-01-14T12:24:48.000Z</time>
      </trkpt>
      <trkpt lat="43.60904" lon="7.03742">
        <ele>167.39999389648</ele>
        <time>2011-01-14T12:24:53.000Z</time>
      </trkpt>
      <trkpt lat="43.60921" lon="7.03745">
        <ele>166.80000305176</ele>
        <time>2011-01-14T12:24:58.000Z</time>
      </trkpt>
      <trkpt lat="43.60929" lon="7.03746">
        <ele>166</ele>
        <time>2011-01-14T12:25:00.000Z</time>
      </trkpt>
      <trkpt lat="43.60948" lon="7.03757">
        <ele>165.80000305176</ele>
        <time>2011-01-14T12:25:07.000Z</time>
      </trkpt>
      <trkpt lat="43.60967" lon="7.0377">
        <ele>165.19999694824</ele>
        <time>2011-01-14T12:25:12.000Z</time>
      </trkpt>
      <trkpt lat="43.60974" lon="7.03778">
        <ele>165.19999694824</ele>
        <time>2011-01-14T12:25:15.000Z</time>
      </trkpt>
      <trkpt lat="43.60977" lon="7.03795">
        <ele>166.39999389648</ele>
        <time>2011-01-14T12:25:19.000Z</time>
      </trkpt>
      <trkpt lat="43.60976" lon="7.03812">
        <ele>168</ele>
        <time>2011-01-14T12:25:23.000Z</time>
      </trkpt>
      <trkpt lat="43.60971" lon="7.03836">
        <ele>171.39999389648</ele>
        <time>2011-01-14T12:25:29.000Z</time>
      </trkpt>
      <trkpt lat="43.6097" lon="7.03854">
        <ele>173</ele>
        <time>2011-01-14T12:25:35.000Z</time>
      </trkpt>
      <trkpt lat="43.6097" lon="7.03856">
        <ele>173</ele>
        <time>2011-01-14T12:25:36.000Z</time>
      </trkpt>
      <trkpt lat="43.6097" lon="7.03862">
        <ele>173.39999389648</ele>
        <time>2011-01-14T12:25:45.000Z</time>
      </trkpt>
      <trkpt lat="43.60971" lon="7.03865">
        <ele>173.39999389648</ele>
        <time>2011-01-14T12:25:51.000Z</time>
      </trkpt>
      <trkpt lat="43.60973" lon="7.03871">
        <ele>173.60000610352</ele>
        <time>2011-01-14T12:25:54.000Z</time>
      </trkpt>
      <trkpt lat="43.60972" lon="7.03887">
        <ele>174.80000305176</ele>
        <time>2011-01-14T12:25:59.000Z</time>
      </trkpt>
      <trkpt lat="43.60977" lon="7.03913">
        <ele>175.39999389648</ele>
        <time>2011-01-14T12:26:06.000Z</time>
      </trkpt>
      <trkpt lat="43.60983" lon="7.03936">
        <ele>176</ele>
        <time>2011-01-14T12:26:12.000Z</time>
      </trkpt>
      <trkpt lat="43.60984" lon="7.03958">
        <ele>177.39999389648</ele>
        <time>2011-01-14T12:26:18.000Z</time>
      </trkpt>
      <trkpt lat="43.60991" lon="7.0398">
        <ele>177.80000305176</ele>
        <time>2011-01-14T12:26:23.000Z</time>
      </trkpt>
      <trkpt lat="43.61" lon="7.04">
        <ele>177.80000305176</ele>
        <time>2011-01-14T12:26:28.000Z</time>
      </trkpt>
      <trkpt lat="43.61011" lon="7.04022">
        <ele>177.80000305176</ele>
        <time>2011-01-14T12:26:33.000Z</time>
      </trkpt>
      <trkpt lat="43.6102" lon="7.04047">
        <ele>178.19999694824</ele>
        <time>2011-01-14T12:26:39.000Z</time>
      </trkpt>
      <trkpt lat="43.61031" lon="7.04072">
        <ele>178.80000305176</ele>
        <time>2011-01-14T12:26:45.000Z</time>
      </trkpt>
      <trkpt lat="43.61045" lon="7.04092">
        <ele>178</ele>
        <time>2011-01-14T12:26:51.000Z</time>
      </trkpt>
      <trkpt lat="43.61054" lon="7.04102">
        <ele>177</ele>
        <time>2011-01-14T12:26:55.000Z</time>
      </trkpt>
      <trkpt lat="43.61057" lon="7.04105">
        <ele>176.80000305176</ele>
        <time>2011-01-14T12:26:57.000Z</time>
      </trkpt>
      <trkpt lat="43.61062" lon="7.04108">
        <ele>176</ele>
        <time>2011-01-14T12:27:05.000Z</time>
      </trkpt>
      <trkpt lat="43.61066" lon="7.04106">
        <ele>175.60000610352</ele>
        <time>2011-01-14T12:27:18.000Z</time>
      </trkpt>
      <trkpt lat="43.61078" lon="7.04107">
        <ele>174.19999694824</ele>
        <time>2011-01-14T12:27:23.000Z</time>
      </trkpt>
      <trkpt lat="43.61081" lon="7.04124">
        <ele>173.60000610352</ele>
        <time>2011-01-14T12:27:27.000Z</time>
      </trkpt>
      <trkpt lat="43.61073" lon="7.04149">
        <ele>174.39999389648</ele>
        <time>2011-01-14T12:27:30.000Z</time>
      </trkpt>
      <trkpt lat="43.61073" lon="7.04172">
        <ele>174.39999389648</ele>
        <time>2011-01-14T12:27:33.000Z</time>
      </trkpt>
      <trkpt lat="43.61076" lon="7.04198">
        <ele>174.60000610352</ele>
        <time>2011-01-14T12:27:37.000Z</time>
      </trkpt>
      <trkpt lat="43.61089" lon="7.04221">
        <ele>174</ele>
        <time>2011-01-14T12:27:41.000Z</time>
      </trkpt>
      <trkpt lat="43.61097" lon="7.0423">
        <ele>173.80000305176</ele>
        <time>2011-01-14T12:27:43.000Z</time>
      </trkpt>
      <trkpt lat="43.61115" lon="7.04252">
        <ele>174.19999694824</ele>
        <time>2011-01-14T12:27:48.000Z</time>
      </trkpt>
      <trkpt lat="43.61127" lon="7.0426">
        <ele>174.39999389648</ele>
        <time>2011-01-14T12:27:51.000Z</time>
      </trkpt>
      <trkpt lat="43.61137" lon="7.04278">
        <ele>175</ele>
        <time>2011-01-14T12:27:56.000Z</time>
      </trkpt>
      <trkpt lat="43.61147" lon="7.04277">
        <ele>174.80000305176</ele>
        <time>2011-01-14T12:28:00.000Z</time>
      </trkpt>
      <trkpt lat="43.61151" lon="7.04281">
        <ele>175</ele>
        <time>2011-01-14T12:28:02.000Z</time>
      </trkpt>
      <trkpt lat="43.61153" lon="7.04286">
        <ele>175.19999694824</ele>
        <time>2011-01-14T12:28:05.000Z</time>
      </trkpt>
      <trkpt lat="43.61153" lon="7.04302">
        <ele>176.19999694824</ele>
        <time>2011-01-14T12:28:09.000Z</time>
      </trkpt>
      <trkpt lat="43.61155" lon="7.04312">
        <ele>176.60000610352</ele>
        <time>2011-01-14T12:28:11.000Z</time>
      </trkpt>
      <trkpt lat="43.61155" lon="7.04332">
        <ele>177.80000305176</ele>
        <time>2011-01-14T12:28:16.000Z</time>
      </trkpt>
      <trkpt lat="43.61165" lon="7.04345">
        <ele>177.80000305176</ele>
        <time>2011-01-14T12:28:21.000Z</time>
      </trkpt>
      <trkpt lat="43.61166" lon="7.04347">
        <ele>177.80000305176</ele>
        <time>2011-01-14T12:28:22.000Z</time>
      </trkpt>
      <trkpt lat="43.6117" lon="7.04361">
        <ele>177.39999389648</ele>
        <time>2011-01-14T12:28:28.000Z</time>
      </trkpt>
      <trkpt lat="43.61176" lon="7.04361">
        <ele>177</ele>
        <time>2011-01-14T12:28:33.000Z</time>
      </trkpt>
      <trkpt lat="43.61174" lon="7.04352">
        <ele>177.19999694824</ele>
        <time>2011-01-14T12:28:37.000Z</time>
      </trkpt>
      <trkpt lat="43.61173" lon="7.04349">
        <ele>177.39999389648</ele>
        <time>2011-01-14T12:28:39.000Z</time>
      </trkpt>
      <trkpt lat="43.61171" lon="7.04354">
        <ele>177.39999389648</ele>
        <time>2011-01-14T12:28:43.000Z</time>
      </trkpt>
      <trkpt lat="43.61171" lon="7.04361">
        <ele>177.39999389648</ele>
        <time>2011-01-14T12:28:46.000Z</time>
      </trkpt>
      <trkpt lat="43.61166" lon="7.04381">
        <ele>177.39999389648</ele>
        <time>2011-01-14T12:28:52.000Z</time>
      </trkpt>
      <trkpt lat="43.61168" lon="7.04396">
        <ele>177</ele>
        <time>2011-01-14T12:28:55.000Z</time>
      </trkpt>
      <trkpt lat="43.61174" lon="7.0442">
        <ele>176.39999389648</ele>
        <time>2011-01-14T12:29:01.000Z</time>
      </trkpt>
      <trkpt lat="43.61176" lon="7.04422">
        <ele>176.19999694824</ele>
        <time>2011-01-14T12:29:02.000Z</time>
      </trkpt>
      <trkpt lat="43.61187" lon="7.04427">
        <ele>175.39999389648</ele>
        <time>2011-01-14T12:29:07.000Z</time>
      </trkpt>
      <trkpt lat="43.61194" lon="7.04434">
        <ele>175</ele>
        <time>2011-01-14T12:29:11.000Z</time>
      </trkpt>
      <trkpt lat="43.61207" lon="7.04446">
        <ele>174</ele>
        <time>2011-01-14T12:29:17.000Z</time>
      </trkpt>
      <trkpt lat="43.61222" lon="7.04462">
        <ele>173</ele>
        <time>2011-01-14T12:29:21.000Z</time>
      </trkpt>
      <trkpt lat="43.61229" lon="7.04474">
        <ele>172.39999389648</ele>
        <time>2011-01-14T12:29:23.000Z</time>
      </trkpt>
      <trkpt lat="43.61238" lon="7.04485">
        <ele>171.80000305176</ele>
        <time>2011-01-14T12:29:25.000Z</time>
      </trkpt>
      <trkpt lat="43.61268" lon="7.04528">
        <ele>168.39999389648</ele>
        <time>2011-01-14T12:29:31.000Z</time>
      </trkpt>
      <trkpt lat="43.61273" lon="7.04534">
        <ele>167.80000305176</ele>
        <time>2011-01-14T12:29:32.000Z</time>
      </trkpt>
      <trkpt lat="43.61289" lon="7.04554">
        <ele>165.39999389648</ele>
        <time>2011-01-14T12:29:35.000Z</time>
      </trkpt>
      <trkpt lat="43.613" lon="7.04585">
        <ele>164.39999389648</ele>
        <time>2011-01-14T12:29:39.000Z</time>
      </trkpt>
      <trkpt lat="43.61304" lon="7.04579">
        <ele>163.60000610352</ele>
        <time>2011-01-14T12:29:43.000Z</time>
      </trkpt>
      <trkpt lat="43.61303" lon="7.04572">
        <ele>163.60000610352</ele>
        <time>2011-01-14T12:29:44.000Z</time>
      </trkpt>
      <trkpt lat="43.61303" lon="7.04563">
        <ele>163.39999389648</ele>
        <time>2011-01-14T12:29:46.000Z</time>
      </trkpt>
      <trkpt lat="43.61307" lon="7.04542">
        <ele>162</ele>
        <time>2011-01-14T12:29:50.000Z</time>
      </trkpt>
      <trkpt lat="43.61307" lon="7.04518">
        <ele>161.19999694824</ele>
        <time>2011-01-14T12:29:54.000Z</time>
      </trkpt>
      <trkpt lat="43.61313" lon="7.04493">
        <ele>159.60000610352</ele>
        <time>2011-01-14T12:29:57.000Z</time>
      </trkpt>
      <trkpt lat="43.61323" lon="7.04477">
        <ele>157.60000610352</ele>
        <time>2011-01-14T12:30:02.000Z</time>
      </trkpt>
      <trkpt lat="43.61326" lon="7.04469">
        <ele>157</ele>
        <time>2011-01-14T12:30:05.000Z</time>
      </trkpt>
      <trkpt lat="43.61334" lon="7.0444">
        <ele>155.19999694824</ele>
        <time>2011-01-14T12:30:10.000Z</time>
      </trkpt>
      <trkpt lat="43.61343" lon="7.04431">
        <ele>155</ele>
        <time>2011-01-14T12:30:13.000Z</time>
      </trkpt>
      <trkpt lat="43.61345" lon="7.0442">
        <ele>154.80000305176</ele>
        <time>2011-01-14T12:30:17.000Z</time>
      </trkpt>
      <trkpt lat="43.61344" lon="7.04405">
        <ele>154.39999389648</ele>
        <time>2011-01-14T12:30:22.000Z</time>
      </trkpt>
      <trkpt lat="43.61352" lon="7.04392">
        <ele>153.80000305176</ele>
        <time>2011-01-14T12:30:27.000Z</time>
      </trkpt>
      <trkpt lat="43.61356" lon="7.04387">
        <ele>153.39999389648</ele>
        <time>2011-01-14T12:30:29.000Z</time>
      </trkpt>
      <trkpt lat="43.6137" lon="7.0436">
        <ele>151.39999389648</ele>
        <time>2011-01-14T12:30:36.000Z</time>
      </trkpt>
      <trkpt lat="43.61376" lon="7.04342">
        <ele>149.80000305176</ele>
        <time>2011-01-14T12:30:41.000Z</time>
      </trkpt>
      <trkpt lat="43.61382" lon="7.04329">
        <ele>148.60000610352</ele>
        <time>2011-01-14T12:30:44.000Z</time>
      </trkpt>
      <trkpt lat="43.61386" lon="7.04327">
        <ele>148</ele>
        <time>2011-01-14T12:30:47.000Z</time>
      </trkpt>
      <trkpt lat="43.61396" lon="7.04325">
        <ele>146.60000610352</ele>
        <time>2011-01-14T12:30:53.000Z</time>
      </trkpt>
      <trkpt lat="43.61396" lon="7.04324">
        <ele>146.60000610352</ele>
        <time>2011-01-14T12:31:00.000Z</time>
      </trkpt>
      <trkpt lat="43.61398" lon="7.04322">
        <ele>146.39999389648</ele>
        <time>2011-01-14T12:31:10.000Z</time>
      </trkpt>
      <trkpt lat="43.61399" lon="7.04318">
        <ele>146.19999694824</ele>
        <time>2011-01-14T12:31:18.000Z</time>
      </trkpt>
      <trkpt lat="43.61395" lon="7.04321">
        <ele>146.80000305176</ele>
        <time>2011-01-14T12:31:29.000Z</time>
      </trkpt>
      <trkpt lat="43.61394" lon="7.04321">
        <ele>147</ele>
        <time>2011-01-14T12:31:35.000Z</time>
      </trkpt>
      <trkpt lat="43.61404" lon="7.04316">
        <ele>145.60000610352</ele>
        <time>2011-01-14T12:31:43.000Z</time>
      </trkpt>
      <trkpt lat="43.61412" lon="7.04307">
        <ele>144.19999694824</ele>
        <time>2011-01-14T12:31:49.000Z</time>
      </trkpt>
      <trkpt lat="43.6143" lon="7.04291">
        <ele>143.19999694824</ele>
        <time>2011-01-14T12:31:55.000Z</time>
      </trkpt>
      <trkpt lat="43.61441" lon="7.04283">
        <ele>142.60000610352</ele>
        <time>2011-01-14T12:32:00.000Z</time>
      </trkpt>
      <trkpt lat="43.61454" lon="7.04268">
        <ele>141.19999694824</ele>
        <time>2011-01-14T12:32:07.000Z</time>
      </trkpt>
      <trkpt lat="43.6146" lon="7.04257">
        <ele>140.19999694824</ele>
        <time>2011-01-14T12:32:13.000Z</time>
      </trkpt>
      <trkpt lat="43.61467" lon="7.04246">
        <ele>139.19999694824</ele>
        <time>2011-01-14T12:32:19.000Z</time>
      </trkpt>
      <trkpt lat="43.61473" lon="7.04233">
        <ele>138.60000610352</ele>
        <time>2011-01-14T12:32:24.000Z</time>
      </trkpt>
      <trkpt lat="43.61482" lon="7.04218">
        <ele>137.80000305176</ele>
        <time>2011-01-14T12:32:29.000Z</time>
      </trkpt>
      <trkpt lat="43.61491" lon="7.04201">
        <ele>136.60000610352</ele>
        <time>2011-01-14T12:32:35.000Z</time>
      </trkpt>
      <trkpt lat="43.61501" lon="7.04186">
        <ele>135.39999389648</ele>
        <time>2011-01-14T12:32:41.000Z</time>
      </trkpt>
      <trkpt lat="43.61506" lon="7.04178">
        <ele>135</ele>
        <time>2011-01-14T12:32:44.000Z</time>
      </trkpt>
      <trkpt lat="43.61514" lon="7.04173">
        <ele>134.80000305176</ele>
        <time>2011-01-14T12:32:49.000Z</time>
      </trkpt>
      <trkpt lat="43.61519" lon="7.04174">
        <ele>134.80000305176</ele>
        <time>2011-01-14T12:32:51.000Z</time>
      </trkpt>
      <trkpt lat="43.61524" lon="7.04175">
        <ele>134.80000305176</ele>
        <time>2011-01-14T12:32:55.000Z</time>
      </trkpt>
      <trkpt lat="43.61533" lon="7.04182">
        <ele>134.80000305176</ele>
        <time>2011-01-14T12:33:00.000Z</time>
      </trkpt>
      <trkpt lat="43.61549" lon="7.04178">
        <ele>134.39999389648</ele>
        <time>2011-01-14T12:33:05.000Z</time>
      </trkpt>
      <trkpt lat="43.61558" lon="7.04162">
        <ele>134.39999389648</ele>
        <time>2011-01-14T12:33:10.000Z</time>
      </trkpt>
      <trkpt lat="43.61561" lon="7.04159">
        <ele>134.39999389648</ele>
        <time>2011-01-14T12:33:12.000Z</time>
      </trkpt>
      <trkpt lat="43.61574" lon="7.04148">
        <ele>134.60000610352</ele>
        <time>2011-01-14T12:33:18.000Z</time>
      </trkpt>
      <trkpt lat="43.61587" lon="7.04146">
        <ele>134.60000610352</ele>
        <time>2011-01-14T12:33:22.000Z</time>
      </trkpt>
      <trkpt lat="43.61611" lon="7.04148">
        <ele>134.80000305176</ele>
        <time>2011-01-14T12:33:27.000Z</time>
      </trkpt>
      <trkpt lat="43.61622" lon="7.04154">
        <ele>134.80000305176</ele>
        <time>2011-01-14T12:33:29.000Z</time>
      </trkpt>
      <trkpt lat="43.61631" lon="7.04179">
        <ele>134.39999389648</ele>
        <time>2011-01-14T12:33:33.000Z</time>
      </trkpt>
      <trkpt lat="43.61636" lon="7.04198">
        <ele>134</ele>
        <time>2011-01-14T12:33:36.000Z</time>
      </trkpt>
      <trkpt lat="43.61642" lon="7.04252">
        <ele>133.19999694824</ele>
        <time>2011-01-14T12:33:45.000Z</time>
      </trkpt>
      <trkpt lat="43.61655" lon="7.04285">
        <ele>132.80000305176</ele>
        <time>2011-01-14T12:33:51.000Z</time>
      </trkpt>
      <trkpt lat="43.61678" lon="7.04334">
        <ele>131.80000305176</ele>
        <time>2011-01-14T12:33:59.000Z</time>
      </trkpt>
      <trkpt lat="43.61702" lon="7.04388">
        <ele>135.19999694824</ele>
        <time>2011-01-14T12:34:08.000Z</time>
      </trkpt>
      <trkpt lat="43.61704" lon="7.04394">
        <ele>135.39999389648</ele>
        <time>2011-01-14T12:34:09.000Z</time>
      </trkpt>
      <trkpt lat="43.61706" lon="7.04431">
        <ele>136.80000305176</ele>
        <time>2011-01-14T12:34:15.000Z</time>
      </trkpt>
      <trkpt lat="43.61707" lon="7.04446">
        <ele>137.60000610352</ele>
        <time>2011-01-14T12:34:18.000Z</time>
      </trkpt>
      <trkpt lat="43.6171" lon="7.04455">
        <ele>137.80000305176</ele>
        <time>2011-01-14T12:34:20.000Z</time>
      </trkpt>
      <trkpt lat="43.61714" lon="7.04467">
        <ele>138</ele>
        <time>2011-01-14T12:34:22.000Z</time>
      </trkpt>
      <trkpt lat="43.6174" lon="7.04492">
        <ele>136</ele>
        <time>2011-01-14T12:34:28.000Z</time>
      </trkpt>
      <trkpt lat="43.61745" lon="7.04496">
        <ele>135.60000610352</ele>
        <time>2011-01-14T12:34:29.000Z</time>
      </trkpt>
      <trkpt lat="43.61767" lon="7.04537">
        <ele>134.19999694824</ele>
        <time>2011-01-14T12:34:36.000Z</time>
      </trkpt>
      <trkpt lat="43.61778" lon="7.04563">
        <ele>133.80000305176</ele>
        <time>2011-01-14T12:34:40.000Z</time>
      </trkpt>
      <trkpt lat="43.61782" lon="7.04578">
        <ele>133.60000610352</ele>
        <time>2011-01-14T12:34:42.000Z</time>
      </trkpt>
      <trkpt lat="43.61803" lon="7.04624">
        <ele>132</ele>
        <time>2011-01-14T12:34:49.000Z</time>
      </trkpt>
      <trkpt lat="43.61831" lon="7.04679">
        <ele>129</ele>
        <time>2011-01-14T12:34:57.000Z</time>
      </trkpt>
      <trkpt lat="43.61853" lon="7.04722">
        <ele>129.19999694824</ele>
        <time>2011-01-14T12:35:03.000Z</time>
      </trkpt>
      <trkpt lat="43.61865" lon="7.04749">
        <ele>129.19999694824</ele>
        <time>2011-01-14T12:35:07.000Z</time>
      </trkpt>
      <trkpt lat="43.61886" lon="7.0478">
        <ele>129.19999694824</ele>
        <time>2011-01-14T12:35:13.000Z</time>
      </trkpt>
      <trkpt lat="43.61888" lon="7.04791">
        <ele>129</ele>
        <time>2011-01-14T12:35:15.000Z</time>
      </trkpt>
      <trkpt lat="43.61898" lon="7.04819">
        <ele>128.60000610352</ele>
        <time>2011-01-14T12:35:19.000Z</time>
      </trkpt>
      <trkpt lat="43.61921" lon="7.0485">
        <ele>127.59999847412</ele>
        <time>2011-01-14T12:35:24.000Z</time>
      </trkpt>
      <trkpt lat="43.61926" lon="7.04857">
        <ele>127.59999847412</ele>
        <time>2011-01-14T12:35:25.000Z</time>
      </trkpt>
      <trkpt lat="43.61934" lon="7.04871">
        <ele>127</ele>
        <time>2011-01-14T12:35:27.000Z</time>
      </trkpt>
      <trkpt lat="43.61962" lon="7.04889">
        <ele>125.59999847412</ele>
        <time>2011-01-14T12:35:32.000Z</time>
      </trkpt>
      <trkpt lat="43.61969" lon="7.04889">
        <ele>125.40000152588</ele>
        <time>2011-01-14T12:35:33.000Z</time>
      </trkpt>
      <trkpt lat="43.61998" lon="7.04891">
        <ele>124</ele>
        <time>2011-01-14T12:35:37.000Z</time>
      </trkpt>
      <trkpt lat="43.62027" lon="7.04898">
        <ele>125.80000305176</ele>
        <time>2011-01-14T12:35:41.000Z</time>
      </trkpt>
      <trkpt lat="43.62045" lon="7.04918">
        <ele>125.59999847412</ele>
        <time>2011-01-14T12:35:44.000Z</time>
      </trkpt>
      <trkpt lat="43.62072" lon="7.04957">
        <ele>126.19999694824</ele>
        <time>2011-01-14T12:35:49.000Z</time>
      </trkpt>
      <trkpt lat="43.62076" lon="7.04987">
        <ele>124.80000305176</ele>
        <time>2011-01-14T12:35:53.000Z</time>
      </trkpt>
      <trkpt lat="43.62065" lon="7.04995">
        <ele>124.59999847412</ele>
        <time>2011-01-14T12:35:56.000Z</time>
      </trkpt>
      <trkpt lat="43.6205" lon="7.05006">
        <ele>124.80000305176</ele>
        <time>2011-01-14T12:36:00.000Z</time>
      </trkpt>
      <trkpt lat="43.62048" lon="7.05019">
        <ele>125.19999694824</ele>
        <time>2011-01-14T12:36:04.000Z</time>
      </trkpt>
      <trkpt lat="43.62048" lon="7.05023">
        <ele>125.19999694824</ele>
        <time>2011-01-14T12:36:05.000Z</time>
      </trkpt>
      <trkpt lat="43.62047" lon="7.05051">
        <ele>126</ele>
        <time>2011-01-14T12:36:10.000Z</time>
      </trkpt>
      <trkpt lat="43.62041" lon="7.05096">
        <ele>127.40000152588</ele>
        <time>2011-01-14T12:36:17.000Z</time>
      </trkpt>
      <trkpt lat="43.62035" lon="7.05142">
        <ele>128.39999389648</ele>
        <time>2011-01-14T12:36:23.000Z</time>
      </trkpt>
      <trkpt lat="43.62026" lon="7.0518">
        <ele>129.80000305176</ele>
        <time>2011-01-14T12:36:28.000Z</time>
      </trkpt>
      <trkpt lat="43.62021" lon="7.05209">
        <ele>130.60000610352</ele>
        <time>2011-01-14T12:36:32.000Z</time>
      </trkpt>
      <trkpt lat="43.62019" lon="7.0524">
        <ele>130.80000305176</ele>
        <time>2011-01-14T12:36:36.000Z</time>
      </trkpt>
      <trkpt lat="43.62026" lon="7.05285">
        <ele>128.39999389648</ele>
        <time>2011-01-14T12:36:42.000Z</time>
      </trkpt>
      <trkpt lat="43.62028" lon="7.053">
        <ele>127.59999847412</ele>
        <time>2011-01-14T12:36:44.000Z</time>
      </trkpt>
      <trkpt lat="43.62033" lon="7.05344">
        <ele>125.19999694824</ele>
        <time>2011-01-14T12:36:50.000Z</time>
      </trkpt>
      <trkpt lat="43.62033" lon="7.05358">
        <ele>124.40000152588</ele>
        <time>2011-01-14T12:36:52.000Z</time>
      </trkpt>
      <trkpt lat="43.62035" lon="7.0538">
        <ele>123</ele>
        <time>2011-01-14T12:36:55.000Z</time>
      </trkpt>
      <trkpt lat="43.62043" lon="7.05422">
        <ele>119.59999847412</ele>
        <time>2011-01-14T12:37:01.000Z</time>
      </trkpt>
      <trkpt lat="43.62045" lon="7.05429">
        <ele>119</ele>
        <time>2011-01-14T12:37:02.000Z</time>
      </trkpt>
      <trkpt lat="43.62046" lon="7.05459">
        <ele>118</ele>
        <time>2011-01-14T12:37:07.000Z</time>
      </trkpt>
      <trkpt lat="43.62045" lon="7.05478">
        <ele>117.80000305176</ele>
        <time>2011-01-14T12:37:10.000Z</time>
      </trkpt>
      <trkpt lat="43.62046" lon="7.05501">
        <ele>117</ele>
        <time>2011-01-14T12:37:15.000Z</time>
      </trkpt>
      <trkpt lat="43.62047" lon="7.05518">
        <ele>116.59999847412</ele>
        <time>2011-01-14T12:37:19.000Z</time>
      </trkpt>
      <trkpt lat="43.6205" lon="7.05529">
        <ele>116</ele>
        <time>2011-01-14T12:37:21.000Z</time>
      </trkpt>
      <trkpt lat="43.62053" lon="7.0556">
        <ele>115.40000152588</ele>
        <time>2011-01-14T12:37:27.000Z</time>
      </trkpt>
      <trkpt lat="43.62065" lon="7.05574">
        <ele>114.40000152588</ele>
        <time>2011-01-14T12:37:31.000Z</time>
      </trkpt>
      <trkpt lat="43.6207" lon="7.05575">
        <ele>114</ele>
        <time>2011-01-14T12:37:32.000Z</time>
      </trkpt>
      <trkpt lat="43.62089" lon="7.05572">
        <ele>112.80000305176</ele>
        <time>2011-01-14T12:37:35.000Z</time>
      </trkpt>
      <trkpt lat="43.62135" lon="7.05558">
        <ele>112.59999847412</ele>
        <time>2011-01-14T12:37:42.000Z</time>
      </trkpt>
      <trkpt lat="43.62165" lon="7.05562">
        <ele>112.19999694824</ele>
        <time>2011-01-14T12:37:47.000Z</time>
      </trkpt>
      <trkpt lat="43.62177" lon="7.05578">
        <ele>111.59999847412</ele>
        <time>2011-01-14T12:37:50.000Z</time>
      </trkpt>
      <trkpt lat="43.62192" lon="7.05609">
        <ele>111.80000305176</ele>
        <time>2011-01-14T12:37:55.000Z</time>
      </trkpt>
      <trkpt lat="43.62202" lon="7.0566">
        <ele>112.40000152588</ele>
        <time>2011-01-14T12:38:02.000Z</time>
      </trkpt>
      <trkpt lat="43.62202" lon="7.05667">
        <ele>112.40000152588</ele>
        <time>2011-01-14T12:38:03.000Z</time>
      </trkpt>
      <trkpt lat="43.62192" lon="7.05722">
        <ele>113</ele>
        <time>2011-01-14T12:38:11.000Z</time>
      </trkpt>
      <trkpt lat="43.62174" lon="7.05768">
        <ele>112.59999847412</ele>
        <time>2011-01-14T12:38:18.000Z</time>
      </trkpt>
      <trkpt lat="43.62167" lon="7.05817">
        <ele>114.19999694824</ele>
        <time>2011-01-14T12:38:25.000Z</time>
      </trkpt>
      <trkpt lat="43.62165" lon="7.05843">
        <ele>115.40000152588</ele>
        <time>2011-01-14T12:38:29.000Z</time>
      </trkpt>
      <trkpt lat="43.62162" lon="7.05858">
        <ele>116.40000152588</ele>
        <time>2011-01-14T12:38:33.000Z</time>
      </trkpt>
      <trkpt lat="43.62168" lon="7.05867">
        <ele>117.59999847412</ele>
        <time>2011-01-14T12:38:37.000Z</time>
      </trkpt>
      <trkpt lat="43.62171" lon="7.05875">
        <ele>118.80000305176</ele>
        <time>2011-01-14T12:38:39.000Z</time>
      </trkpt>
      <trkpt lat="43.62167" lon="7.05901">
        <ele>119.80000305176</ele>
        <time>2011-01-14T12:38:44.000Z</time>
      </trkpt>
      <trkpt lat="43.62166" lon="7.05914">
        <ele>120.59999847412</ele>
        <time>2011-01-14T12:38:48.000Z</time>
      </trkpt>
      <trkpt lat="43.62162" lon="7.05921">
        <ele>120.59999847412</ele>
        <time>2011-01-14T12:38:52.000Z</time>
      </trkpt>
      <trkpt lat="43.62165" lon="7.05917">
        <ele>120.59999847412</ele>
        <time>2011-01-14T12:38:56.000Z</time>
      </trkpt>
      <trkpt lat="43.6216" lon="7.0593">
        <ele>120.80000305176</ele>
        <time>2011-01-14T12:39:02.000Z</time>
      </trkpt>
      <trkpt lat="43.62159" lon="7.05949">
        <ele>121.40000152588</ele>
        <time>2011-01-14T12:39:07.000Z</time>
      </trkpt>
      <trkpt lat="43.62159" lon="7.0597">
        <ele>122.40000152588</ele>
        <time>2011-01-14T12:39:14.000Z</time>
      </trkpt>
      <trkpt lat="43.62172" lon="7.05976">
        <ele>124.80000305176</ele>
        <time>2011-01-14T12:39:20.000Z</time>
      </trkpt>
      <trkpt lat="43.62185" lon="7.0598">
        <ele>127.40000152588</ele>
        <time>2011-01-14T12:39:28.000Z</time>
      </trkpt>
      <trkpt lat="43.62188" lon="7.05982">
        <ele>128</ele>
        <time>2011-01-14T12:39:31.000Z</time>
      </trkpt>
      <trkpt lat="43.62185" lon="7.0598">
        <ele>127.40000152588</ele>
        <time>2011-01-14T12:39:36.000Z</time>
      </trkpt>
      <trkpt lat="43.62183" lon="7.0599">
        <ele>127.40000152588</ele>
        <time>2011-01-14T12:39:40.000Z</time>
      </trkpt>
      <trkpt lat="43.62183" lon="7.06013">
        <ele>127.59999847412</ele>
        <time>2011-01-14T12:39:45.000Z</time>
      </trkpt>
      <trkpt lat="43.62185" lon="7.06047">
        <ele>127.19999694824</ele>
        <time>2011-01-14T12:39:51.000Z</time>
      </trkpt>
      <trkpt lat="43.62194" lon="7.06066">
        <ele>128</ele>
        <time>2011-01-14T12:39:56.000Z</time>
      </trkpt>
      <trkpt lat="43.62207" lon="7.06078">
        <ele>129.39999389648</ele>
        <time>2011-01-14T12:40:02.000Z</time>
      </trkpt>
      <trkpt lat="43.62217" lon="7.06093">
        <ele>130</ele>
        <time>2011-01-14T12:40:07.000Z</time>
      </trkpt>
      <trkpt lat="43.62236" lon="7.06123">
        <ele>130.80000305176</ele>
        <time>2011-01-14T12:40:16.000Z</time>
      </trkpt>
      <trkpt lat="43.62255" lon="7.06151">
        <ele>131.19999694824</ele>
        <time>2011-01-14T12:40:24.000Z</time>
      </trkpt>
      <trkpt lat="43.62258" lon="7.06164">
        <ele>130.60000610352</ele>
        <time>2011-01-14T12:40:28.000Z</time>
      </trkpt>
      <trkpt lat="43.6226" lon="7.06167">
        <ele>130.60000610352</ele>
        <time>2011-01-14T12:40:30.000Z</time>
      </trkpt>
      <trkpt lat="43.62267" lon="7.06171">
        <ele>130.80000305176</ele>
        <time>2011-01-14T12:40:35.000Z</time>
      </trkpt>
      <trkpt lat="43.62271" lon="7.06179">
        <ele>130.39999389648</ele>
        <time>2011-01-14T12:40:37.000Z</time>
      </trkpt>
      <trkpt lat="43.62293" lon="7.06208">
        <ele>129</ele>
        <time>2011-01-14T12:40:43.000Z</time>
      </trkpt>
      <trkpt lat="43.62312" lon="7.062">
        <ele>130.60000610352</ele>
        <time>2011-01-14T12:40:47.000Z</time>
      </trkpt>
      <trkpt lat="43.62325" lon="7.0618">
        <ele>133.60000610352</ele>
        <time>2011-01-14T12:40:51.000Z</time>
      </trkpt>
      <trkpt lat="43.62338" lon="7.0618">
        <ele>134.19999694824</ele>
        <time>2011-01-14T12:40:55.000Z</time>
      </trkpt>
    </trkseg>
  </trk>
</gpx>